PORTS® Data Listing: 8575512 Annapolis, MD

CO-OPS RAW PORTS DATA

************************      PRELIMINARY DATA      ************************** 

     THIS RAW DATA HAS NOT BEEN SUBJECT TO THE NATIONAL OCEAN SERVICE'S        
     QUALITY CONTROL OR QUALITY ASSURANCE PROCEDURES AND DOES NOT MEET         
     THE CRITERIA AND STANDARDS OF OFFICIAL NATIONAL OCEAN SERVICE             
     DATA.  IT IS RELEASED FOR LIMITED PUBLIC USE AS PRELIMINARY DATA TO       
     BE USED ONLY WITH APPROPRIATE CAUTION.                                    

************************      PRELIMINARY DATA      ************************** 


       CD   -   Calendar date
       T    -   Time
       TZ   -   Timezone
       PW   -   Predicted water level (feet above MLLW)
       OW   -   Observed water level (feet above MLLW)
       WS   -   Wind speed (knots)
       WD   -   Wind direction (degrees true)
       WG   -   Wind gust (knots)
       AT   -   Air temperature (degrees farenheit)
       WT   -   Water temperature (degrees farenheit)
       AP   -   Air pressure (millibars)
       SA   -   Salinty (PSU - Practical Salinity Units)
       SG   -   Specific gravity
       RH   -   Relative humidity
       AG   -   Air gap (feet)
       VI   -   Visibility (nautical miles)

       ** NOTE **
       A variable that has its data fields filled with "9"s, indicates that
       data was not collected for that sample period.
       **********


STATION NAME: Annapolis (8575512)
****************************************************************************************************
    CD       T    TZ    PW     OW    WS   WD   WG    AT    WT    AP    SA    SG     RH    AG   VI
****************************************************************************************************
2019/12/05 19:54 EST    0.34   0.33 -999 -999 -999  40.7 -99.9 1019.7 -9.9 -9.999 -99.9 -99.99 -9.99
2019/12/05 20:00 EST    0.35   0.35 -999 -999 -999  40.5 -99.9 1019.8 -9.9 -9.999 -99.9 -99.99 -9.99
2019/12/05 20:06 EST    0.37   0.38 -999 -999 -999  40.4 -99.9 1019.9 -9.9 -9.999 -99.9 -99.99 -9.99
2019/12/05 20:12 EST    0.39   0.41 -999 -999 -999  40.4 -99.9 1019.9 -9.9 -9.999 -99.9 -99.99 -9.99
2019/12/05 20:18 EST    0.41   0.43 -999 -999 -999  40.2 -99.9 1020.0 -9.9 -9.999 -99.9 -99.99 -9.99
2019/12/05 20:24 EST    0.42   0.45 -999 -999 -999  39.6 -99.9 1020.0 -9.9 -9.999 -99.9 -99.99 -9.99
2019/12/05 20:30 EST    0.44   0.44 -999 -999 -999  39.4 -99.9 1020.1 -9.9 -9.999 -99.9 -99.99 -9.99
2019/12/05 20:36 EST    0.46   0.46 -999 -999 -999  39.5 -99.9 1020.2 -9.9 -9.999 -99.9 -99.99 -9.99
2019/12/05 20:42 EST    0.48   0.50 -999 -999 -999  39.2 -99.9 1020.2 -9.9 -9.999 -99.9 -99.99 -9.99
2019/12/05 20:48 EST    0.49   0.51 -999 -999 -999  39.6 -99.9 1020.3 -9.9 -9.999 -99.9 -99.99 -9.99
2019/12/05 20:54 EST    0.51   0.56 -999 -999 -999  39.5 -99.9 1020.3 -9.9 -9.999 -99.9 -99.99 -9.99
2019/12/05 21:00 EST    0.53   0.57 -999 -999 -999  39.5 -99.9 1020.3 -9.9 -9.999 -99.9 -99.99 -9.99
2019/12/05 21:06 EST    0.54   0.57 -999 -999 -999  39.4 -99.9 1020.4 -9.9 -9.999 -99.9 -99.99 -9.99
2019/12/05 21:12 EST    0.56   0.60 -999 -999 -999  39.2 -99.9 1020.4 -9.9 -9.999 -99.9 -99.99 -9.99
2019/12/05 21:18 EST    0.58   0.61 -999 -999 -999  38.5 -99.9 1020.4 -9.9 -9.999 -99.9 -99.99 -9.99
2019/12/05 21:24 EST    0.59   0.63 -999 -999 -999  38.1 -99.9 1020.5 -9.9 -9.999 -99.9 -99.99 -9.99
2019/12/05 21:30 EST    0.61   0.65 -999 -999 -999  37.9 -99.9 1020.5 -9.9 -9.999 -99.9 -99.99 -9.99
2019/12/05 21:36 EST    0.63   0.66 -999 -999 -999  39.0 -99.9 1020.5 -9.9 -9.999 -99.9 -99.99 -9.99
2019/12/05 21:42 EST    0.64   0.70 -999 -999 -999  39.1 -99.9 1020.5 -9.9 -9.999 -99.9 -99.99 -9.99
2019/12/05 21:48 EST    0.66   0.71 -999 -999 -999  39.1 -99.9 1020.6 -9.9 -9.999 -99.9 -99.99 -9.99
2019/12/05 21:54 EST    0.68   0.72 -999 -999 -999  38.8 -99.9 1020.7 -9.9 -9.999 -99.9 -99.99 -9.99
2019/12/05 22:00 EST    0.69   0.75 -999 -999 -999  38.6 -99.9 1020.8 -9.9 -9.999 -99.9 -99.99 -9.99
2019/12/05 22:06 EST    0.71   0.76 -999 -999 -999  38.3 -99.9 1020.9 -9.9 -9.999 -99.9 -99.99 -9.99
2019/12/05 22:12 EST    0.72   0.79 -999 -999 -999  37.8 -99.9 1020.9 -9.9 -9.999 -99.9 -99.99 -9.99
2019/12/05 22:18 EST    0.74   0.82 -999 -999 -999  37.8 -99.9 1020.9 -9.9 -9.999 -99.9 -99.99 -9.99
2019/12/05 22:24 EST    0.75   0.84 -999 -999 -999  38.7 -99.9 1020.9 -9.9 -9.999 -99.9 -99.99 -9.99
2019/12/05 22:30 EST    0.76   0.85 -999 -999 -999  38.6 -99.9 1020.9 -9.9 -9.999 -99.9 -99.99 -9.99
2019/12/05 22:36 EST    0.78   0.88 -999 -999 -999  38.3 -99.9 1021.0 -9.9 -9.999 -99.9 -99.99 -9.99
2019/12/05 22:42 EST    0.79   0.90 -999 -999 -999  38.1 -99.9 1021.0 -9.9 -9.999 -99.9 -99.99 -9.99
2019/12/05 22:48 EST    0.80   0.90 -999 -999 -999  38.4 -99.9 1021.1 -9.9 -9.999 -99.9 -99.99 -9.99
2019/12/05 22:54 EST    0.81   0.93 -999 -999 -999  38.2 -99.9 1021.1 -9.9 -9.999 -99.9 -99.99 -9.99
2019/12/05 23:00 EST    0.83   0.95 -999 -999 -999  38.3 -99.9 1021.1 -9.9 -9.999 -99.9 -99.99 -9.99
2019/12/05 23:06 EST    0.84   0.97 -999 -999 -999  38.9 -99.9 1021.1 -9.9 -9.999 -99.9 -99.99 -9.99
2019/12/05 23:12 EST    0.85   0.99 -999 -999 -999  38.6 -99.9 1021.1 -9.9 -9.999 -99.9 -99.99 -9.99
2019/12/05 23:18 EST    0.85   1.00 -999 -999 -999  38.1 -99.9 1021.2 -9.9 -9.999 -99.9 -99.99 -9.99
2019/12/05 23:24 EST    0.86   1.00 -999 -999 -999  37.9 -99.9 1021.2 -9.9 -9.999 -99.9 -99.99 -9.99
2019/12/05 23:30 EST    0.87   1.02 -999 -999 -999  37.7 -99.9 1021.2 -9.9 -9.999 -99.9 -99.99 -9.99
2019/12/05 23:36 EST    0.88   1.03 -999 -999 -999  37.6 -99.9 1021.3 -9.9 -9.999 -99.9 -99.99 -9.99
2019/12/05 23:42 EST    0.88   1.06 -999 -999 -999  37.8 -99.9 1021.3 -9.9 -9.999 -99.9 -99.99 -9.99
2019/12/05 23:48 EST    0.89   1.07 -999 -999 -999  37.5 -99.9 1021.4 -9.9 -9.999 -99.9 -99.99 -9.99
2019/12/05 23:54 EST    0.89   1.09 -999 -999 -999  37.3 -99.9 1021.5 -9.9 -9.999 -99.9 -99.99 -9.99
2019/12/06 00:00 EST    0.89   1.09 -999 -999 -999  37.1 -99.9 1021.5 -9.9 -9.999 -99.9 -99.99 -9.99
2019/12/06 00:06 EST    0.89   1.10 -999 -999 -999  37.0 -99.9 1021.6 -9.9 -9.999 -99.9 -99.99 -9.99
2019/12/06 00:12 EST    0.89   1.11 -999 -999 -999  37.3 -99.9 1021.6 -9.9 -9.999 -99.9 -99.99 -9.99
2019/12/06 00:18 EST    0.89   1.11 -999 -999 -999  37.9 -99.9 1021.6 -9.9 -9.999 -99.9 -99.99 -9.99
2019/12/06 00:24 EST    0.89   1.12 -999 -999 -999  37.5 -99.9 1021.6 -9.9 -9.999 -99.9 -99.99 -9.99
2019/12/06 00:30 EST    0.89   1.14 -999 -999 -999  37.2 -99.9 1021.7 -9.9 -9.999 -99.9 -99.99 -9.99
2019/12/06 00:36 EST    0.88   1.14 -999 -999 -999  36.9 -99.9 1021.7 -9.9 -9.999 -99.9 -99.99 -9.99
2019/12/06 00:42 EST    0.88   1.13 -999 -999 -999  36.8 -99.9 1021.8 -9.9 -9.999 -99.9 -99.99 -9.99
2019/12/06 00:48 EST    0.87   1.14 -999 -999 -999  37.2 -99.9 1021.8 -9.9 -9.999 -99.9 -99.99 -9.99
2019/12/06 00:54 EST    0.87   1.13 -999 -999 -999  36.9 -99.9 1021.7 -9.9 -9.999 -99.9 -99.99 -9.99
2019/12/06 01:00 EST    0.86   1.14 -999 -999 -999  36.9 -99.9 1021.7 -9.9 -9.999 -99.9 -99.99 -9.99
2019/12/06 01:06 EST    0.85   1.14 -999 -999 -999  37.0 -99.9 1021.7 -9.9 -9.999 -99.9 -99.99 -9.99
2019/12/06 01:12 EST    0.84   1.13 -999 -999 -999  37.1 -99.9 1021.7 -9.9 -9.999 -99.9 -99.99 -9.99
2019/12/06 01:18 EST    0.83   1.12 -999 -999 -999  37.1 -99.9 1021.7 -9.9 -9.999 -99.9 -99.99 -9.99
2019/12/06 01:24 EST    0.82   1.11 -999 -999 -999  37.3 -99.9 1021.7 -9.9 -9.999 -99.9 -99.99 -9.99
2019/12/06 01:30 EST    0.81   1.10 -999 -999 -999  37.4 -99.9 1021.6 -9.9 -9.999 -99.9 -99.99 -9.99
2019/12/06 01:36 EST    0.79   1.10 -999 -999 -999  37.5 -99.9 1021.7 -9.9 -9.999 -99.9 -99.99 -9.99
2019/12/06 01:42 EST    0.78   1.09 -999 -999 -999  37.5 -99.9 1021.6 -9.9 -9.999 -99.9 -99.99 -9.99
2019/12/06 01:48 EST    0.77   1.08 -999 -999 -999  37.8 -99.9 1021.6 -9.9 -9.999 -99.9 -99.99 -9.99
2019/12/06 01:54 EST    0.75   1.08 -999 -999 -999  38.1 -99.9 1021.5 -9.9 -9.999 -99.9 -99.99 -9.99
2019/12/06 02:00 EST    0.74   1.07 -999 -999 -999  38.4 -99.9 1021.6 -9.9 -9.999 -99.9 -99.99 -9.99
2019/12/06 02:06 EST    0.72   1.07 -999 -999 -999  38.3 -99.9 1021.6 -9.9 -9.999 -99.9 -99.99 -9.99
2019/12/06 02:12 EST    0.71   1.06 -999 -999 -999  38.2 -99.9 1021.6 -9.9 -9.999 -99.9 -99.99 -9.99
2019/12/06 02:18 EST    0.69   1.05 -999 -999 -999  38.1 -99.9 1021.6 -9.9 -9.999 -99.9 -99.99 -9.99
2019/12/06 02:24 EST    0.67   1.04 -999 -999 -999  38.2 -99.9 1021.6 -9.9 -9.999 -99.9 -99.99 -9.99
2019/12/06 02:30 EST    0.66   1.02 -999 -999 -999  38.5 -99.9 1021.6 -9.9 -9.999 -99.9 -99.99 -9.99
2019/12/06 02:36 EST    0.64   1.01 -999 -999 -999  38.2 -99.9 1021.6 -9.9 -9.999 -99.9 -99.99 -9.99
2019/12/06 02:42 EST    0.62   1.01 -999 -999 -999  38.0 -99.9 1021.6 -9.9 -9.999 -99.9 -99.99 -9.99
2019/12/06 02:48 EST    0.61   1.00 -999 -999 -999  37.9 -99.9 1021.6 -9.9 -9.999 -99.9 -99.99 -9.99
2019/12/06 02:54 EST    0.59   0.98 -999 -999 -999  38.1 -99.9 1021.5 -9.9 -9.999 -99.9 -99.99 -9.99
2019/12/06 03:00 EST    0.57   0.97 -999 -999 -999  38.3 -99.9 1021.5 -9.9 -9.999 -99.9 -99.99 -9.99
2019/12/06 03:06 EST    0.55   0.96 -999 -999 -999  38.6 -99.9 1021.4 -9.9 -9.999 -99.9 -99.99 -9.99
2019/12/06 03:12 EST    0.53   0.94 -999 -999 -999  38.7 -99.9 1021.4 -9.9 -9.999 -99.9 -99.99 -9.99
2019/12/06 03:18 EST    0.51   0.93 -999 -999 -999  38.5 -99.9 1021.4 -9.9 -9.999 -99.9 -99.99 -9.99
2019/12/06 03:24 EST    0.50   0.92 -999 -999 -999  38.5 -99.9 1021.4 -9.9 -9.999 -99.9 -99.99 -9.99
2019/12/06 03:30 EST    0.48   0.91 -999 -999 -999  38.2 -99.9 1021.4 -9.9 -9.999 -99.9 -99.99 -9.99
2019/12/06 03:36 EST    0.46   0.90 -999 -999 -999  38.1 -99.9 1021.2 -9.9 -9.999 -99.9 -99.99 -9.99
2019/12/06 03:42 EST    0.44   0.89 -999 -999 -999  37.7 -99.9 1021.2 -9.9 -9.999 -99.9 -99.99 -9.99
2019/12/06 03:48 EST    0.42   0.88 -999 -999 -999  37.2 -99.9 1021.2 -9.9 -9.999 -99.9 -99.99 -9.99
2019/12/06 03:54 EST    0.40   0.85 -999 -999 -999  36.7 -99.9 1021.2 -9.9 -9.999 -99.9 -99.99 -9.99
2019/12/06 04:00 EST    0.38   0.84 -999 -999 -999  36.2 -99.9 1021.2 -9.9 -9.999 -99.9 -99.99 -9.99
2019/12/06 04:06 EST    0.36   0.83 -999 -999 -999  36.0 -99.9 1021.2 -9.9 -9.999 -99.9 -99.99 -9.99
2019/12/06 04:12 EST    0.34   0.81 -999 -999 -999  35.8 -99.9 1021.2 -9.9 -9.999 -99.9 -99.99 -9.99
2019/12/06 04:18 EST    0.32   0.80 -999 -999 -999  35.8 -99.9 1021.1 -9.9 -9.999 -99.9 -99.99 -9.99
2019/12/06 04:24 EST    0.30   0.78 -999 -999 -999  35.7 -99.9 1021.2 -9.9 -9.999 -99.9 -99.99 -9.99
2019/12/06 04:30 EST    0.28   0.76 -999 -999 -999  35.9 -99.9 1021.2 -9.9 -9.999 -99.9 -99.99 -9.99
2019/12/06 04:36 EST    0.26   0.75 -999 -999 -999  35.6 -99.9 1021.3 -9.9 -9.999 -99.9 -99.99 -9.99
2019/12/06 04:42 EST    0.24   0.73 -999 -999 -999  35.5 -99.9 1021.3 -9.9 -9.999 -99.9 -99.99 -9.99
2019/12/06 04:48 EST    0.22   0.73 -999 -999 -999  35.6 -99.9 1021.3 -9.9 -9.999 -99.9 -99.99 -9.99
2019/12/06 04:54 EST    0.20   0.71 -999 -999 -999  35.9 -99.9 1021.3 -9.9 -9.999 -99.9 -99.99 -9.99
2019/12/06 05:00 EST    0.18   0.69 -999 -999 -999  35.7 -99.9 1021.3 -9.9 -9.999 -99.9 -99.99 -9.99
2019/12/06 05:06 EST    0.17   0.68 -999 -999 -999  35.7 -99.9 1021.2 -9.9 -9.999 -99.9 -99.99 -9.99
2019/12/06 05:12 EST    0.15   0.66 -999 -999 -999  35.9 -99.9 1021.2 -9.9 -9.999 -99.9 -99.99 -9.99
2019/12/06 05:18 EST    0.13   0.64 -999 -999 -999  36.1 -99.9 1021.3 -9.9 -9.999 -99.9 -99.99 -9.99
2019/12/06 05:24 EST    0.12   0.63 -999 -999 -999  36.2 -99.9 1021.4 -9.9 -9.999 -99.9 -99.99 -9.99
2019/12/06 05:30 EST    0.10   0.62 -999 -999 -999  36.1 -99.9 1021.3 -9.9 -9.999 -99.9 -99.99 -9.99
2019/12/06 05:36 EST    0.09   0.62 -999 -999 -999  36.5 -99.9 1021.3 -9.9 -9.999 -99.9 -99.99 -9.99
2019/12/06 05:42 EST    0.07   0.61 -999 -999 -999  36.3 -99.9 1021.3 -9.9 -9.999 -99.9 -99.99 -9.99
2019/12/06 05:48 EST    0.06   0.61 -999 -999 -999  36.0 -99.9 1021.3 -9.9 -9.999 -99.9 -99.99 -9.99
2019/12/06 05:54 EST    0.05   0.61 -999 -999 -999  36.0 -99.9 1021.2 -9.9 -9.999 -99.9 -99.99 -9.99
2019/12/06 06:00 EST    0.04   0.61 -999 -999 -999  36.1 -99.9 1021.2 -9.9 -9.999 -99.9 -99.99 -9.99
2019/12/06 06:06 EST    0.03   0.60 -999 -999 -999  35.7 -99.9 1021.1 -9.9 -9.999 -99.9 -99.99 -9.99
2019/12/06 06:12 EST    0.03   0.60 -999 -999 -999  35.4 -99.9 1021.1 -9.9 -9.999 -99.9 -99.99 -9.99
2019/12/06 06:18 EST    0.02   0.60 -999 -999 -999  35.4 -99.9 1021.0 -9.9 -9.999 -99.9 -99.99 -9.99
2019/12/06 06:24 EST    0.02   0.60 -999 -999 -999  35.6 -99.9 1020.9 -9.9 -9.999 -99.9 -99.99 -9.99
2019/12/06 06:30 EST    0.02   0.60 -999 -999 -999  35.9 -99.9 1021.0 -9.9 -9.999 -99.9 -99.99 -9.99
2019/12/06 06:36 EST    0.01   0.61 -999 -999 -999  36.4 -99.9 1020.9 -9.9 -9.999 -99.9 -99.99 -9.99
2019/12/06 06:42 EST    0.01   0.61 -999 -999 -999  36.7 -99.9 1021.0 -9.9 -9.999 -99.9 -99.99 -9.99
2019/12/06 06:48 EST    0.01   0.62 -999 -999 -999  36.8 -99.9 1021.0 -9.9 -9.999 -99.9 -99.99 -9.99
2019/12/06 06:54 EST    0.02   0.64 -999 -999 -999  37.0 -99.9 1021.1 -9.9 -9.999 -99.9 -99.99 -9.99
2019/12/06 07:00 EST    0.02   0.67 -999 -999 -999  37.0 -99.9 1021.1 -9.9 -9.999 -99.9 -99.99 -9.99
2019/12/06 07:06 EST    0.03   0.68 -999 -999 -999  37.2 -99.9 1021.1 -9.9 -9.999 -99.9 -99.99 -9.99
2019/12/06 07:12 EST    0.03   0.65 -999 -999 -999  37.6 -99.9 1021.1 -9.9 -9.999 -99.9 -99.99 -9.99
2019/12/06 07:18 EST    0.04   0.66 -999 -999 -999  38.3 -99.9 1021.0 -9.9 -9.999 -99.9 -99.99 -9.99
2019/12/06 07:24 EST    0.05   0.69 -999 -999 -999  39.0 -99.9 1021.0 -9.9 -9.999 -99.9 -99.99 -9.99
2019/12/06 07:30 EST    0.06   0.72 -999 -999 -999  39.7 -99.9 1021.0 -9.9 -9.999 -99.9 -99.99 -9.99
2019/12/06 07:36 EST    0.07   0.76 -999 -999 -999  40.1 -99.9 1021.0 -9.9 -9.999 -99.9 -99.99 -9.99
2019/12/06 07:42 EST    0.08   0.75 -999 -999 -999  40.7 -99.9 1021.0 -9.9 -9.999 -99.9 -99.99 -9.99
2019/12/06 07:48 EST    0.09   0.77 -999 -999 -999  41.2 -99.9 1021.0 -9.9 -9.999 -99.9 -99.99 -9.99
2019/12/06 07:54 EST    0.11   0.81 -999 -999 -999  41.6 -99.9 1020.9 -9.9 -9.999 -99.9 -99.99 -9.99
2019/12/06 08:00 EST    0.12   0.82 -999 -999 -999  41.9 -99.9 1020.9 -9.9 -9.999 -99.9 -99.99 -9.99
2019/12/06 08:06 EST    0.14   0.82 -999 -999 -999  41.9 -99.9 1020.9 -9.9 -9.999 -99.9 -99.99 -9.99
2019/12/06 08:12 EST    0.15   0.85 -999 -999 -999  41.9 -99.9 1020.8 -9.9 -9.999 -99.9 -99.99 -9.99
2019/12/06 08:18 EST    0.17   0.87 -999 -999 -999  41.9 -99.9 1020.8 -9.9 -9.999 -99.9 -99.99 -9.99
2019/12/06 08:24 EST    0.18   0.93 -999 -999 -999  42.3 -99.9 1020.8 -9.9 -9.999 -99.9 -99.99 -9.99
2019/12/06 08:30 EST    0.20   0.92 -999 -999 -999  42.9 -99.9 1020.8 -9.9 -9.999 -99.9 -99.99 -9.99
2019/12/06 08:36 EST    0.22   0.93 -999 -999 -999  43.3 -99.9 1020.7 -9.9 -9.999 -99.9 -99.99 -9.99
2019/12/06 08:42 EST    0.24   0.98 -999 -999 -999  43.9 -99.9 1020.7 -9.9 -9.999 -99.9 -99.99 -9.99
2019/12/06 08:48 EST    0.25   1.01 -999 -999 -999  44.2 -99.9 1020.6 -9.9 -9.999 -99.9 -99.99 -9.99
2019/12/06 08:54 EST    0.27   1.05 -999 -999 -999  44.4 -99.9 1020.6 -9.9 -9.999 -99.9 -99.99 -9.99
2019/12/06 09:00 EST    0.29   1.06 -999 -999 -999  44.6 -99.9 1020.5 -9.9 -9.999 -99.9 -99.99 -9.99
2019/12/06 09:06 EST    0.31   1.06 -999 -999 -999  44.7 -99.9 1020.5 -9.9 -9.999 -99.9 -99.99 -9.99
2019/12/06 09:12 EST    0.33   1.10 -999 -999 -999  44.9 -99.9 1020.6 -9.9 -9.999 -99.9 -99.99 -9.99
2019/12/06 09:18 EST    0.34   1.12 -999 -999 -999  44.9 -99.9 1020.7 -9.9 -9.999 -99.9 -99.99 -9.99
2019/12/06 09:24 EST    0.36   1.13 -999 -999 -999  45.2 -99.9 1020.7 -9.9 -9.999 -99.9 -99.99 -9.99
2019/12/06 09:30 EST    0.38   1.17 -999 -999 -999  45.3 -99.9 1020.7 -9.9 -9.999 -99.9 -99.99 -9.99
2019/12/06 09:36 EST    0.40   1.19 -999 -999 -999  45.5 -99.9 1020.7 -9.9 -9.999 -99.9 -99.99 -9.99
2019/12/06 09:42 EST    0.42   1.23 -999 -999 -999  45.6 -99.9 1020.7 -9.9 -9.999 -99.9 -99.99 -9.99
2019/12/06 09:48 EST    0.44   1.26 -999 -999 -999  45.8 -99.9 1020.6 -9.9 -9.999 -99.9 -99.99 -9.99
2019/12/06 09:54 EST    0.46   1.28 -999 -999 -999  45.9 -99.9 1020.5 -9.9 -9.999 -99.9 -99.99 -9.99
2019/12/06 10:00 EST    0.47   1.30 -999 -999 -999  46.2 -99.9 1020.5 -9.9 -9.999 -99.9 -99.99 -9.99
2019/12/06 10:06 EST    0.49   1.33 -999 -999 -999  46.6 -99.9 1020.6 -9.9 -9.999 -99.9 -99.99 -9.99
2019/12/06 10:12 EST    0.51   1.35 -999 -999 -999  46.9 -99.9 1020.5 -9.9 -9.999 -99.9 -99.99 -9.99
2019/12/06 10:18 EST    0.53   1.36 -999 -999 -999  47.5 -99.9 1020.4 -9.9 -9.999 -99.9 -99.99 -9.99
2019/12/06 10:24 EST    0.55   1.37 -999 -999 -999  47.7 -99.9 1020.3 -9.9 -9.999 -99.9 -99.99 -9.99
2019/12/06 10:30 EST    0.57   1.39 -999 -999 -999  47.8 -99.9 1020.2 -9.9 -9.999 -99.9 -99.99 -9.99
2019/12/06 10:36 EST    0.58   1.42 -999 -999 -999  47.8 -99.9 1020.1 -9.9 -9.999 -99.9 -99.99 -9.99
2019/12/06 10:42 EST    0.60   1.44 -999 -999 -999  48.4 -99.9 1019.9 -9.9 -9.999 -99.9 -99.99 -9.99
2019/12/06 10:48 EST    0.62   1.45 -999 -999 -999  48.4 -99.9 1019.7 -9.9 -9.999 -99.9 -99.99 -9.99
2019/12/06 10:54 EST    0.64   1.47 -999 -999 -999  48.6 -99.9 1019.4 -9.9 -9.999 -99.9 -99.99 -9.99
2019/12/06 11:00 EST    0.65   1.49 -999 -999 -999  48.7 -99.9 1019.2 -9.9 -9.999 -99.9 -99.99 -9.99
2019/12/06 11:06 EST    0.67   1.52 -999 -999 -999  48.9 -99.9 1019.1 -9.9 -9.999 -99.9 -99.99 -9.99
2019/12/06 11:12 EST    0.69   1.54 -999 -999 -999  49.0 -99.9 1018.9 -9.9 -9.999 -99.9 -99.99 -9.99
2019/12/06 11:18 EST    0.70   1.55 -999 -999 -999  49.4 -99.9 1018.9 -9.9 -9.999 -99.9 -99.99 -9.99
2019/12/06 11:24 EST    0.72   1.57 -999 -999 -999  49.5 -99.9 1018.6 -9.9 -9.999 -99.9 -99.99 -9.99
2019/12/06 11:30 EST    0.73   1.58 -999 -999 -999  49.7 -99.9 1018.5 -9.9 -9.999 -99.9 -99.99 -9.99
2019/12/06 11:36 EST    0.74   1.59 -999 -999 -999  49.9 -99.9 1018.4 -9.9 -9.999 -99.9 -99.99 -9.99
2019/12/06 11:42 EST    0.76   1.59 -999 -999 -999  49.7 -99.9 1018.3 -9.9 -9.999 -99.9 -99.99 -9.99
2019/12/06 11:48 EST    0.77   1.61 -999 -999 -999  49.7 -99.9 1018.1 -9.9 -9.999 -99.9 -99.99 -9.99
2019/12/06 11:54 EST    0.78   1.64 -999 -999 -999  49.6 -99.9 1018.0 -9.9 -9.999 -99.9 -99.99 -9.99
2019/12/06 12:00 EST    0.79   1.66 -999 -999 -999  49.6 -99.9 1017.9 -9.9 -9.999 -99.9 -99.99 -9.99
2019/12/06 12:06 EST    0.80   1.67 -999 -999 -999  49.6 -99.9 1017.7 -9.9 -9.999 -99.9 -99.99 -9.99
2019/12/06 12:12 EST    0.81   1.67 -999 -999 -999  49.8 -99.9 1017.7 -9.9 -9.999 -99.9 -99.99 -9.99
2019/12/06 12:18 EST    0.82   1.68 -999 -999 -999  49.9 -99.9 1017.6 -9.9 -9.999 -99.9 -99.99 -9.99
2019/12/06 12:24 EST    0.83   1.69 -999 -999 -999  50.1 -99.9 1017.5 -9.9 -9.999 -99.9 -99.99 -9.99
2019/12/06 12:30 EST    0.83   1.69 -999 -999 -999  50.3 -99.9 1017.3 -9.9 -9.999 -99.9 -99.99 -9.99
2019/12/06 12:36 EST    0.84   1.70 -999 -999 -999  50.4 -99.9 1017.2 -9.9 -9.999 -99.9 -99.99 -9.99
2019/12/06 12:42 EST    0.84   1.71 -999 -999 -999  50.7 -99.9 1017.0 -9.9 -9.999 -99.9 -99.99 -9.99
2019/12/06 12:48 EST    0.84   1.73 -999 -999 -999  50.8 -99.9 1016.9 -9.9 -9.999 -99.9 -99.99 -9.99
2019/12/06 12:54 EST    0.85   1.75 -999 -999 -999  51.2 -99.9 1016.9 -9.9 -9.999 -99.9 -99.99 -9.99
2019/12/06 13:00 EST    0.85   1.76 -999 -999 -999  51.6 -99.9 1016.8 -9.9 -9.999 -99.9 -99.99 -9.99
2019/12/06 13:06 EST    0.85   1.77 -999 -999 -999  51.9 -99.9 1016.7 -9.9 -9.999 -99.9 -99.99 -9.99
2019/12/06 13:12 EST    0.85   1.78 -999 -999 -999  52.4 -99.9 1016.6 -9.9 -9.999 -99.9 -99.99 -9.99
2019/12/06 13:18 EST    0.84   1.79 -999 -999 -999  53.4 -99.9 1016.7 -9.9 -9.999 -99.9 -99.99 -9.99
2019/12/06 13:24 EST    0.84   1.79 -999 -999 -999  53.9 -99.9 1016.6 -9.9 -9.999 -99.9 -99.99 -9.99
2019/12/06 13:30 EST    0.84   1.78 -999 -999 -999  54.4 -99.9 1016.6 -9.9 -9.999 -99.9 -99.99 -9.99
2019/12/06 13:36 EST    0.83   1.77 -999 -999 -999  54.4 -99.9 1016.5 -9.9 -9.999 -99.9 -99.99 -9.99
2019/12/06 13:42 EST    0.83   1.77 -999 -999 -999  54.6 -99.9 1016.5 -9.9 -9.999 -99.9 -99.99 -9.99
2019/12/06 13:48 EST    0.82   1.76 -999 -999 -999  54.5 -99.9 1016.4 -9.9 -9.999 -99.9 -99.99 -9.99
2019/12/06 13:54 EST    0.81   1.75 -999 -999 -999  54.5 -99.9 1016.4 -9.9 -9.999 -99.9 -99.99 -9.99
2019/12/06 14:00 EST    0.81   1.76 -999 -999 -999  54.6 -99.9 1016.2 -9.9 -9.999 -99.9 -99.99 -9.99
2019/12/06 14:06 EST    0.80   1.77 -999 -999 -999  54.7 -99.9 1016.2 -9.9 -9.999 -99.9 -99.99 -9.99
2019/12/06 14:12 EST    0.79   1.76 -999 -999 -999  54.9 -99.9 1016.1 -9.9 -9.999 -99.9 -99.99 -9.99
2019/12/06 14:18 EST    0.78   1.75 -999 -999 -999  55.0 -99.9 1016.0 -9.9 -9.999 -99.9 -99.99 -9.99
2019/12/06 14:24 EST    0.77   1.73 -999 -999 -999  55.0 -99.9 1016.0 -9.9 -9.999 -99.9 -99.99 -9.99
2019/12/06 14:30 EST    0.76   1.72 -999 -999 -999  55.1 -99.9 1016.0 -9.9 -9.999 -99.9 -99.99 -9.99
2019/12/06 14:36 EST    0.75   1.72 -999 -999 -999  55.0 -99.9 1016.0 -9.9 -9.999 -99.9 -99.99 -9.99
2019/12/06 14:42 EST    0.74   1.71 -999 -999 -999  55.0 -99.9 1016.0 -9.9 -9.999 -99.9 -99.99 -9.99
2019/12/06 14:48 EST    0.73   1.71 -999 -999 -999  55.0 -99.9 1016.1 -9.9 -9.999 -99.9 -99.99 -9.99
2019/12/06 14:54 EST    0.71   1.69 -999 -999 -999  54.9 -99.9 1016.0 -9.9 -9.999 -99.9 -99.99 -9.99
2019/12/06 15:00 EST    0.70   1.68 -999 -999 -999  54.9 -99.9 1015.9 -9.9 -9.999 -99.9 -99.99 -9.99
2019/12/06 15:06 EST    0.69   1.67 -999 -999 -999  54.7 -99.9 1016.0 -9.9 -9.999 -99.9 -99.99 -9.99
2019/12/06 15:12 EST    0.68   1.64 -999 -999 -999  54.6 -99.9 1016.0 -9.9 -9.999 -99.9 -99.99 -9.99
2019/12/06 15:18 EST    0.66   1.63 -999 -999 -999  54.5 -99.9 1015.9 -9.9 -9.999 -99.9 -99.99 -9.99
2019/12/06 15:24 EST    0.65   1.62 -999 -999 -999  54.4 -99.9 1015.9 -9.9 -9.999 -99.9 -99.99 -9.99
2019/12/06 15:30 EST    0.63   1.59 -999 -999 -999  54.3 -99.9 1015.9 -9.9 -9.999 -99.9 -99.99 -9.99
2019/12/06 15:36 EST    0.62   1.57 -999 -999 -999  54.3 -99.9 1016.0 -9.9 -9.999 -99.9 -99.99 -9.99
2019/12/06 15:42 EST    0.60   1.55 -999 -999 -999  54.2 -99.9 1016.1 -9.9 -9.999 -99.9 -99.99 -9.99
2019/12/06 15:48 EST    0.59   1.54 -999 -999 -999  54.1 -99.9 1016.2 -9.9 -9.999 -99.9 -99.99 -9.99
2019/12/06 15:54 EST    0.57   1.52 -999 -999 -999  53.9 -99.9 1016.2 -9.9 -9.999 -99.9 -99.99 -9.99
2019/12/06 16:00 EST    0.56   1.52 -999 -999 -999  53.9 -99.9 1016.2 -9.9 -9.999 -99.9 -99.99 -9.99
2019/12/06 16:06 EST    0.54   1.51 -999 -999 -999  53.9 -99.9 1016.3 -9.9 -9.999 -99.9 -99.99 -9.99
2019/12/06 16:12 EST    0.53   1.50 -999 -999 -999  53.8 -99.9 1016.3 -9.9 -9.999 -99.9 -99.99 -9.99
2019/12/06 16:18 EST    0.51   1.48 -999 -999 -999  53.7 -99.9 1016.3 -9.9 -9.999 -99.9 -99.99 -9.99
2019/12/06 16:24 EST    0.50   1.48 -999 -999 -999  53.8 -99.9 1016.4 -9.9 -9.999 -99.9 -99.99 -9.99
2019/12/06 16:30 EST    0.48   1.46 -999 -999 -999  53.6 -99.9 1016.5 -9.9 -9.999 -99.9 -99.99 -9.99
2019/12/06 16:36 EST    0.46   1.43 -999 -999 -999  53.6 -99.9 1016.6 -9.9 -9.999 -99.9 -99.99 -9.99
2019/12/06 16:42 EST    0.45   1.42 -999 -999 -999  53.4 -99.9 1016.7 -9.9 -9.999 -99.9 -99.99 -9.99
2019/12/06 16:48 EST    0.43   1.40 -999 -999 -999  53.3 -99.9 1016.7 -9.9 -9.999 -99.9 -99.99 -9.99
2019/12/06 16:54 EST    0.41   1.39 -999 -999 -999  53.2 -99.9 1016.6 -9.9 -9.999 -99.9 -99.99 -9.99
2019/12/06 17:00 EST    0.40   1.39 -999 -999 -999  53.1 -99.9 1016.6 -9.9 -9.999 -99.9 -99.99 -9.99
2019/12/06 17:06 EST    0.38   1.37 -999 -999 -999  53.1 -99.9 1016.5 -9.9 -9.999 -99.9 -99.99 -9.99
2019/12/06 17:12 EST    0.36   1.37 -999 -999 -999  53.0 -99.9 1016.5 -9.9 -9.999 -99.9 -99.99 -9.99
2019/12/06 17:18 EST    0.35   1.36 -999 -999 -999  52.8 -99.9 1016.5 -9.9 -9.999 -99.9 -99.99 -9.99
2019/12/06 17:24 EST    0.33   1.35 -999 -999 -999  52.8 -99.9 1016.5 -9.9 -9.999 -99.9 -99.99 -9.99
2019/12/06 17:30 EST    0.32   1.33 -999 -999 -999  52.7 -99.9 1016.5 -9.9 -9.999 -99.9 -99.99 -9.99
2019/12/06 17:36 EST    0.30   1.33 -999 -999 -999  52.7 -99.9 1016.6 -9.9 -9.999 -99.9 -99.99 -9.99
2019/12/06 17:42 EST    0.29   1.31 -999 -999 -999  52.4 -99.9 1016.5 -9.9 -9.999 -99.9 -99.99 -9.99
2019/12/06 17:48 EST    0.27   1.29 -999 -999 -999  52.4 -99.9 1016.5 -9.9 -9.999 -99.9 -99.99 -9.99
2019/12/06 17:54 EST    0.26   1.27 -999 -999 -999  52.3 -99.9 1016.6 -9.9 -9.999 -99.9 -99.99 -9.99
2019/12/06 18:00 EST    0.25   1.26 -999 -999 -999  52.2 -99.9 1016.7 -9.9 -9.999 -99.9 -99.99 -9.99
2019/12/06 18:06 EST    0.24   1.25 -999 -999 -999  52.1 -99.9 1016.8 -9.9 -9.999 -99.9 -99.99 -9.99
2019/12/06 18:12 EST    0.23   1.24 -999 -999 -999  52.1 -99.9 1016.9 -9.9 -9.999 -99.9 -99.99 -9.99
2019/12/06 18:18 EST    0.22   1.24 -999 -999 -999  52.2 -99.9 1017.0 -9.9 -9.999 -99.9 -99.99 -9.99
2019/12/06 18:24 EST    0.21   1.24 -999 -999 -999  52.1 -99.9 1017.1 -9.9 -9.999 -99.9 -99.99 -9.99
2019/12/06 18:30 EST    0.20   1.23 -999 -999 -999  52.0 -99.9 1017.3 -9.9 -9.999 -99.9 -99.99 -9.99
2019/12/06 18:36 EST    0.20   1.23 -999 -999 -999  52.0 -99.9 1017.4 -9.9 -9.999 -99.9 -99.99 -9.99
2019/12/06 18:42 EST    0.19   1.22 -999 -999 -999  51.8 -99.9 1017.5 -9.9 -9.999 -99.9 -99.99 -9.99
2019/12/06 18:48 EST    0.19   1.21 -999 -999 -999  51.7 -99.9 1017.6 -9.9 -9.999 -99.9 -99.99 -9.99
2019/12/06 18:54 EST    0.19   1.19 -999 -999 -999  51.7 -99.9 1017.8 -9.9 -9.999 -99.9 -99.99 -9.99
2019/12/06 19:00 EST    0.19   1.19 -999 -999 -999  51.7 -99.9 1017.8 -9.9 -9.999 -99.9 -99.99 -9.99
2019/12/06 19:06 EST    0.19   1.18 -999 -999 -999  51.7 -99.9 1017.9 -9.9 -9.999 -99.9 -99.99 -9.99
2019/12/06 19:12 EST    0.19   1.16 -999 -999 -999  51.7 -99.9 1018.0 -9.9 -9.999 -99.9 -99.99 -9.99
2019/12/06 19:18 EST    0.19   1.16 -999 -999 -999  51.7 -99.9 1018.1 -9.9 -9.999 -99.9 -99.99 -9.99
2019/12/06 19:24 EST    0.20   1.14 -999 -999 -999  51.6 -99.9 1018.2 -9.9 -9.999 -99.9 -99.99 -9.99
2019/12/06 19:30 EST    0.20   1.14 -999 -999 -999  51.6 -99.9 1018.2 -9.9 -9.999 -99.9 -99.99 -9.99
2019/12/06 19:36 EST    0.21   1.14 -999 -999 -999  51.5 -99.9 1018.3 -9.9 -9.999 -99.9 -99.99 -9.99
2019/12/06 19:42 EST    0.22   1.14 -999 -999 -999  51.4 -99.9 1018.4 -9.9 -9.999 -99.9 -99.99 -9.99
2019/12/06 19:48 EST    0.22   1.14 -999 -999 -999  51.4 -99.9 1018.4 -9.9 -9.999 -99.9 -99.99 -9.99
2019/12/06 19:54 EST    0.23   1.13 -999 -999 -999  51.4 -99.9 1018.5 -9.9 -9.999 -99.9 -99.99 -9.99
2019/12/06 20:00 EST    0.24   1.13 -999 -999 -999  51.3 -99.9 1018.6 -9.9 -9.999 -99.9 -99.99 -9.99
2019/12/06 20:06 EST    0.25   1.13 -999 -999 -999  51.4 -99.9 1018.7 -9.9 -9.999 -99.9 -99.99 -9.99
2019/12/06 20:12 EST    0.27   1.14 -999 -999 -999  51.3 -99.9 1018.7 -9.9 -9.999 -99.9 -99.99 -9.99
2019/12/06 20:18 EST    0.28   1.15 -999 -999 -999  51.1 -99.9 1018.7 -9.9 -9.999 -99.9 -99.99 -9.99
2019/12/06 20:24 EST    0.29   1.16 -999 -999 -999  49.3 -99.9 1018.7 -9.9 -9.999 -99.9 -99.99 -9.99
2019/12/06 20:30 EST    0.31   1.17 -999 -999 -999  49.1 -99.9 1018.8 -9.9 -9.999 -99.9 -99.99 -9.99
2019/12/06 20:36 EST    0.32   1.18 -999 -999 -999  49.4 -99.9 1018.8 -9.9 -9.999 -99.9 -99.99 -9.99
2019/12/06 20:42 EST    0.33   1.18 -999 -999 -999  49.7 -99.9 1018.9 -9.9 -9.999 -99.9 -99.99 -9.99
2019/12/06 20:48 EST    0.35   1.18 -999 -999 -999  48.9 -99.9 1019.0 -9.9 -9.999 -99.9 -99.99 -9.99
2019/12/06 20:54 EST    0.36   1.18 -999 -999 -999  48.6 -99.9 1019.1 -9.9 -9.999 -99.9 -99.99 -9.99
2019/12/06 21:00 EST    0.38   1.19 -999 -999 -999  48.3 -99.9 1019.2 -9.9 -9.999 -99.9 -99.99 -9.99
2019/12/06 21:06 EST    0.40   1.19 -999 -999 -999  48.1 -99.9 1019.3 -9.9 -9.999 -99.9 -99.99 -9.99
2019/12/06 21:12 EST    0.41   1.19 -999 -999 -999  48.3 -99.9 1019.3 -9.9 -9.999 -99.9 -99.99 -9.99
2019/12/06 21:18 EST    0.43   1.20 -999 -999 -999  48.0 -99.9 1019.3 -9.9 -9.999 -99.9 -99.99 -9.99
2019/12/06 21:24 EST    0.44   1.21 -999 -999 -999  47.8 -99.9 1019.2 -9.9 -9.999 -99.9 -99.99 -9.99
2019/12/06 21:30 EST    0.46   1.23 -999 -999 -999  48.6 -99.9 1019.3 -9.9 -9.999 -99.9 -99.99 -9.99
2019/12/06 21:36 EST    0.47   1.25 -999 -999 -999  48.0 -99.9 1019.3 -9.9 -9.999 -99.9 -99.99 -9.99
2019/12/06 21:42 EST    0.49   1.28 -999 -999 -999  47.3 -99.9 1019.5 -9.9 -9.999 -99.9 -99.99 -9.99
2019/12/06 21:48 EST    0.51   1.29 -999 -999 -999  47.6 -99.9 1019.6 -9.9 -9.999 -99.9 -99.99 -9.99
2019/12/06 21:54 EST    0.52   1.29 -999 -999 -999  48.7 -99.9 1019.6 -9.9 -9.999 -99.9 -99.99 -9.99
2019/12/06 22:00 EST    0.54   1.30 -999 -999 -999  49.2 -99.9 1019.6 -9.9 -9.999 -99.9 -99.99 -9.99
2019/12/06 22:06 EST    0.55   1.31 -999 -999 -999  49.4 -99.9 1019.8 -9.9 -9.999 -99.9 -99.99 -9.99
2019/12/06 22:12 EST    0.57   1.32 -999 -999 -999  49.4 -99.9 1019.9 -9.9 -9.999 -99.9 -99.99 -9.99
2019/12/06 22:18 EST    0.58   1.33 -999 -999 -999  48.6 -99.9 1020.0 -9.9 -9.999 -99.9 -99.99 -9.99
2019/12/06 22:24 EST    0.60   1.34 -999 -999 -999  48.0 -99.9 1020.0 -9.9 -9.999 -99.9 -99.99 -9.99
2019/12/06 22:30 EST    0.61   1.34 -999 -999 -999  47.9 -99.9 1020.1 -9.9 -9.999 -99.9 -99.99 -9.99
2019/12/06 22:36 EST    0.63   1.35 -999 -999 -999  48.3 -99.9 1020.2 -9.9 -9.999 -99.9 -99.99 -9.99
2019/12/06 22:42 EST    0.64   1.35 -999 -999 -999  48.6 -99.9 1020.3 -9.9 -9.999 -99.9 -99.99 -9.99
2019/12/06 22:48 EST    0.66   1.36 -999 -999 -999  48.6 -99.9 1020.4 -9.9 -9.999 -99.9 -99.99 -9.99
2019/12/06 22:54 EST    0.67   1.37 -999 -999 -999  48.5 -99.9 1020.6 -9.9 -9.999 -99.9 -99.99 -9.99
2019/12/06 23:00 EST    0.69   1.39 -999 -999 -999  48.6 -99.9 1020.8 -9.9 -9.999 -99.9 -99.99 -9.99
2019/12/06 23:06 EST    0.70   1.38 -999 -999 -999  48.4 -99.9 1020.9 -9.9 -9.999 -99.9 -99.99 -9.99
2019/12/06 23:12 EST    0.71   1.39 -999 -999 -999  48.0 -99.9 1021.0 -9.9 -9.999 -99.9 -99.99 -9.99
2019/12/06 23:18 EST    0.72   1.40 -999 -999 -999  47.9 -99.9 1021.1 -9.9 -9.999 -99.9 -99.99 -9.99
2019/12/06 23:24 EST    0.74   1.43 -999 -999 -999  47.7 -99.9 1021.3 -9.9 -9.999 -99.9 -99.99 -9.99
2019/12/06 23:30 EST    0.75   1.47 -999 -999 -999  47.5 -99.9 1021.5 -9.9 -9.999 -99.9 -99.99 -9.99
2019/12/06 23:36 EST    0.76   1.46 -999 -999 -999  47.4 -99.9 1021.5 -9.9 -9.999 -99.9 -99.99 -9.99
2019/12/06 23:42 EST    0.77   1.46 -999 -999 -999  47.2 -99.9 1021.5 -9.9 -9.999 -99.9 -99.99 -9.99
2019/12/06 23:48 EST    0.78   1.46 -999 -999 -999  47.2 -99.9 1021.6 -9.9 -9.999 -99.9 -99.99 -9.99
2019/12/06 23:54 EST    0.79   1.45 -999 -999 -999  47.0 -99.9 1021.7 -9.9 -9.999 -99.9 -99.99 -9.99
2019/12/07 00:00 EST    0.80   1.43 -999 -999 -999  46.8 -99.9 1021.7 -9.9 -9.999 -99.9 -99.99 -9.99
2019/12/07 00:06 EST    0.81   1.41 -999 -999 -999  46.6 -99.9 1021.8 -9.9 -9.999 -99.9 -99.99 -9.99
2019/12/07 00:12 EST    0.82   1.40 -999 -999 -999  46.4 -99.9 1021.7 -9.9 -9.999 -99.9 -99.99 -9.99
2019/12/07 00:18 EST    0.82   1.40 -999 -999 -999  46.2 -99.9 1022.0 -9.9 -9.999 -99.9 -99.99 -9.99
2019/12/07 00:24 EST    0.83   1.38 -999 -999 -999  45.9 -99.9 1022.0 -9.9 -9.999 -99.9 -99.99 -9.99
2019/12/07 00:30 EST    0.83   1.37 -999 -999 -999  45.7 -99.9 1022.2 -9.9 -9.999 -99.9 -99.99 -9.99
2019/12/07 00:36 EST    0.84   1.38 -999 -999 -999  45.5 -99.9 1022.3 -9.9 -9.999 -99.9 -99.99 -9.99
2019/12/07 00:42 EST    0.84   1.39 -999 -999 -999  45.3 -99.9 1022.3 -9.9 -9.999 -99.9 -99.99 -9.99
2019/12/07 00:48 EST    0.84   1.39 -999 -999 -999  45.2 -99.9 1022.4 -9.9 -9.999 -99.9 -99.99 -9.99
2019/12/07 00:54 EST    0.84   1.38 -999 -999 -999  45.0 -99.9 1022.5 -9.9 -9.999 -99.9 -99.99 -9.99
2019/12/07 01:00 EST    0.84   1.35 -999 -999 -999  44.9 -99.9 1022.7 -9.9 -9.999 -99.9 -99.99 -9.99
2019/12/07 01:06 EST    0.84   1.33 -999 -999 -999  44.8 -99.9 1022.6 -9.9 -9.999 -99.9 -99.99 -9.99
2019/12/07 01:12 EST    0.84   1.31 -999 -999 -999  44.6 -99.9 1022.6 -9.9 -9.999 -99.9 -99.99 -9.99
2019/12/07 01:18 EST    0.83   1.31 -999 -999 -999  44.4 -99.9 1022.7 -9.9 -9.999 -99.9 -99.99 -9.99
2019/12/07 01:24 EST    0.83   1.31 -999 -999 -999  44.2 -99.9 1022.9 -9.9 -9.999 -99.9 -99.99 -9.99
2019/12/07 01:30 EST    0.82   1.29 -999 -999 -999  44.1 -99.9 1023.0 -9.9 -9.999 -99.9 -99.99 -9.99
2019/12/07 01:36 EST    0.81   1.27 -999 -999 -999  43.8 -99.9 1023.2 -9.9 -9.999 -99.9 -99.99 -9.99
2019/12/07 01:42 EST    0.81   1.24 -999 -999 -999  43.7 -99.9 1023.4 -9.9 -9.999 -99.9 -99.99 -9.99
2019/12/07 01:48 EST    0.80   1.21 -999 -999 -999  43.4 -99.9 1023.5 -9.9 -9.999 -99.9 -99.99 -9.99
2019/12/07 01:54 EST    0.79   1.18 -999 -999 -999  43.2 -99.9 1023.5 -9.9 -9.999 -99.9 -99.99 -9.99
2019/12/07 02:00 EST    0.78   1.15 -999 -999 -999  42.9 -99.9 1023.6 -9.9 -9.999 -99.9 -99.99 -9.99
2019/12/07 02:06 EST    0.77   1.12 -999 -999 -999  42.7 -99.9 1023.7 -9.9 -9.999 -99.9 -99.99 -9.99
2019/12/07 02:12 EST    0.75   1.11 -999 -999 -999  42.5 -99.9 1023.9 -9.9 -9.999 -99.9 -99.99 -9.99
2019/12/07 02:18 EST    0.74   1.09 -999 -999 -999  42.4 -99.9 1024.0 -9.9 -9.999 -99.9 -99.99 -9.99
2019/12/07 02:24 EST    0.73   1.05 -999 -999 -999  42.3 -99.9 1024.0 -9.9 -9.999 -99.9 -99.99 -9.99
2019/12/07 02:30 EST    0.71   1.03 -999 -999 -999  42.2 -99.9 1024.1 -9.9 -9.999 -99.9 -99.99 -9.99
2019/12/07 02:36 EST    0.70   0.99 -999 -999 -999  42.0 -99.9 1024.2 -9.9 -9.999 -99.9 -99.99 -9.99
2019/12/07 02:42 EST    0.68   0.97 -999 -999 -999  41.9 -99.9 1024.3 -9.9 -9.999 -99.9 -99.99 -9.99
2019/12/07 02:48 EST    0.67   0.93 -999 -999 -999  41.9 -99.9 1024.4 -9.9 -9.999 -99.9 -99.99 -9.99
2019/12/07 02:54 EST    0.65   0.89 -999 -999 -999  41.8 -99.9 1024.5 -9.9 -9.999 -99.9 -99.99 -9.99
2019/12/07 03:00 EST    0.64   0.86 -999 -999 -999  41.5 -99.9 1024.6 -9.9 -9.999 -99.9 -99.99 -9.99
2019/12/07 03:06 EST    0.62   0.82 -999 -999 -999  41.4 -99.9 1024.7 -9.9 -9.999 -99.9 -99.99 -9.99
2019/12/07 03:12 EST    0.60   0.79 -999 -999 -999  41.3 -99.9 1024.7 -9.9 -9.999 -99.9 -99.99 -9.99
2019/12/07 03:18 EST    0.58   0.77 -999 -999 -999  41.3 -99.9 1024.8 -9.9 -9.999 -99.9 -99.99 -9.99
2019/12/07 03:24 EST    0.57   0.74 -999 -999 -999  41.1 -99.9 1024.9 -9.9 -9.999 -99.9 -99.99 -9.99
2019/12/07 03:30 EST    0.55   0.71 -999 -999 -999  40.8 -99.9 1025.1 -9.9 -9.999 -99.9 -99.99 -9.99
2019/12/07 03:36 EST    0.53   0.69 -999 -999 -999  40.7 -99.9 1025.2 -9.9 -9.999 -99.9 -99.99 -9.99
2019/12/07 03:42 EST    0.51   0.67 -999 -999 -999  40.4 -99.9 1025.2 -9.9 -9.999 -99.9 -99.99 -9.99
2019/12/07 03:48 EST    0.49   0.65 -999 -999 -999  40.2 -99.9 1025.3 -9.9 -9.999 -99.9 -99.99 -9.99
2019/12/07 03:54 EST    0.47   0.62 -999 -999 -999  40.2 -99.9 1025.3 -9.9 -9.999 -99.9 -99.99 -9.99
2019/12/07 04:00 EST    0.45   0.59 -999 -999 -999  40.0 -99.9 1025.4 -9.9 -9.999 -99.9 -99.99 -9.99
2019/12/07 04:06 EST    0.43   0.55 -999 -999 -999  39.9 -99.9 1025.5 -9.9 -9.999 -99.9 -99.99 -9.99
2019/12/07 04:12 EST    0.41   0.52 -999 -999 -999  39.8 -99.9 1025.5 -9.9 -9.999 -99.9 -99.99 -9.99
2019/12/07 04:18 EST    0.39   0.48 -999 -999 -999  39.5 -99.9 1025.6 -9.9 -9.999 -99.9 -99.99 -9.99
2019/12/07 04:24 EST    0.37   0.46 -999 -999 -999  39.6 -99.9 1025.7 -9.9 -9.999 -99.9 -99.99 -9.99
2019/12/07 04:30 EST    0.35   0.44 -999 -999 -999  39.4 -99.9 1025.7 -9.9 -9.999 -99.9 -99.99 -9.99
2019/12/07 04:36 EST    0.33   0.41 -999 -999 -999  39.4 -99.9 1025.9 -9.9 -9.999 -99.9 -99.99 -9.99
2019/12/07 04:42 EST    0.31   0.37 -999 -999 -999  39.1 -99.9 1026.0 -9.9 -9.999 -99.9 -99.99 -9.99
2019/12/07 04:48 EST    0.29   0.34 -999 -999 -999  38.8 -99.9 1026.1 -9.9 -9.999 -99.9 -99.99 -9.99
2019/12/07 04:54 EST    0.27   0.32 -999 -999 -999  38.7 -99.9 1026.1 -9.9 -9.999 -99.9 -99.99 -9.99
2019/12/07 05:00 EST    0.25   0.29 -999 -999 -999  38.8 -99.9 1026.2 -9.9 -9.999 -99.9 -99.99 -9.99
2019/12/07 05:06 EST    0.23   0.28 -999 -999 -999  38.5 -99.9 1026.3 -9.9 -9.999 -99.9 -99.99 -9.99
2019/12/07 05:12 EST    0.21   0.27 -999 -999 -999  38.2 -99.9 1026.3 -9.9 -9.999 -99.9 -99.99 -9.99
2019/12/07 05:18 EST    0.19   0.23 -999 -999 -999  38.2 -99.9 1026.4 -9.9 -9.999 -99.9 -99.99 -9.99
2019/12/07 05:24 EST    0.17   0.20 -999 -999 -999  38.0 -99.9 1026.5 -9.9 -9.999 -99.9 -99.99 -9.99
2019/12/07 05:30 EST    0.15   0.17 -999 -999 -999  37.9 -99.9 1026.5 -9.9 -9.999 -99.9 -99.99 -9.99
2019/12/07 05:36 EST    0.13   0.14 -999 -999 -999  38.0 -99.9 1026.5 -9.9 -9.999 -99.9 -99.99 -9.99
2019/12/07 05:42 EST    0.11   0.11 -999 -999 -999  38.0 -99.9 1026.6 -9.9 -9.999 -99.9 -99.99 -9.99
2019/12/07 05:48 EST    0.10   0.07 -999 -999 -999  37.7 -99.9 1026.7 -9.9 -9.999 -99.9 -99.99 -9.99
2019/12/07 05:54 EST    0.08   0.04 -999 -999 -999  37.7 -99.9 1026.9 -9.9 -9.999 -99.9 -99.99 -9.99
2019/12/07 06:00 EST    0.06   0.01 -999 -999 -999  37.6 -99.9 1027.1 -9.9 -9.999 -99.9 -99.99 -9.99
2019/12/07 06:06 EST    0.05  -0.02 -999 -999 -999  37.7 -99.9 1027.3 -9.9 -9.999 -99.9 -99.99 -9.99
2019/12/07 06:12 EST    0.03  -0.04 -999 -999 -999  37.7 -99.9 1027.4 -9.9 -9.999 -99.9 -99.99 -9.99
2019/12/07 06:18 EST    0.02  -0.06 -999 -999 -999  37.6 -99.9 1027.5 -9.9 -9.999 -99.9 -99.99 -9.99
2019/12/07 06:24 EST    0.00  -0.07 -999 -999 -999  37.5 -99.9 1027.6 -9.9 -9.999 -99.9 -99.99 -9.99
2019/12/07 06:30 EST   -0.01  -0.10 -999 -999 -999  37.4 -99.9 1027.6 -9.9 -9.999 -99.9 -99.99 -9.99
2019/12/07 06:36 EST   -0.02  -0.12 -999 -999 -999  36.7 -99.9 1027.7 -9.9 -9.999 -99.9 -99.99 -9.99
2019/12/07 06:42 EST   -0.03  -0.15 -999 -999 -999  36.0 -99.9 1027.7 -9.9 -9.999 -99.9 -99.99 -9.99
2019/12/07 06:48 EST   -0.04  -0.17 -999 -999 -999  35.6 -99.9 1027.8 -9.9 -9.999 -99.9 -99.99 -9.99
2019/12/07 06:54 EST   -0.05  -0.19 -999 -999 -999  35.3 -99.9 1027.9 -9.9 -9.999 -99.9 -99.99 -9.99
2019/12/07 07:00 EST   -0.05  -0.22 -999 -999 -999  34.9 -99.9 1028.0 -9.9 -9.999 -99.9 -99.99 -9.99
2019/12/07 07:06 EST   -0.06  -0.24 -999 -999 -999  34.7 -99.9 1028.1 -9.9 -9.999 -99.9 -99.99 -9.99
2019/12/07 07:12 EST   -0.06  -0.26 -999 -999 -999  34.7 -99.9 1028.2 -9.9 -9.999 -99.9 -99.99 -9.99
2019/12/07 07:18 EST   -0.06  -0.27 -999 -999 -999  35.2 -99.9 1028.2 -9.9 -9.999 -99.9 -99.99 -9.99
2019/12/07 07:24 EST   -0.06  -0.28 -999 -999 -999  35.9 -99.9 1028.3 -9.9 -9.999 -99.9 -99.99 -9.99
2019/12/07 07:30 EST   -0.06  -0.30 -999 -999 -999  37.0 -99.9 1028.4 -9.9 -9.999 -99.9 -99.99 -9.99
2019/12/07 07:36 EST   -0.06  -0.32 -999 -999 -999  37.9 -99.9 1028.4 -9.9 -9.999 -99.9 -99.99 -9.99
2019/12/07 07:42 EST   -0.06  -0.33 -999 -999 -999  38.7 -99.9 1028.5 -9.9 -9.999 -99.9 -99.99 -9.99
2019/12/07 07:48 EST   -0.05  -0.33 -999 -999 -999  38.7 -99.9 1028.5 -9.9 -9.999 -99.9 -99.99 -9.99
2019/12/07 07:54 EST   -0.05  -0.34 -999 -999 -999  38.9 -99.9 1028.6 -9.9 -9.999 -99.9 -99.99 -9.99
2019/12/07 08:00 EST   -0.04  -0.36 -999 -999 -999  38.8 -99.9 1028.6 -9.9 -9.999 -99.9 -99.99 -9.99
2019/12/07 08:06 EST   -0.03  -0.37 -999 -999 -999  38.7 -99.9 1028.6 -9.9 -9.999 -99.9 -99.99 -9.99
2019/12/07 08:12 EST   -0.02  -0.38 -999 -999 -999  38.1 -99.9 1028.7 -9.9 -9.999 -99.9 -99.99 -9.99
2019/12/07 08:18 EST   -0.01  -0.38 -999 -999 -999  37.5 -99.9 1028.7 -9.9 -9.999 -99.9 -99.99 -9.99
2019/12/07 08:24 EST    0.01  -0.38 -999 -999 -999  37.2 -99.9 1028.8 -9.9 -9.999 -99.9 -99.99 -9.99
2019/12/07 08:30 EST    0.02  -0.39 -999 -999 -999  37.1 -99.9 1028.8 -9.9 -9.999 -99.9 -99.99 -9.99
2019/12/07 08:36 EST    0.04  -0.38 -999 -999 -999  37.2 -99.9 1029.0 -9.9 -9.999 -99.9 -99.99 -9.99
2019/12/07 08:42 EST    0.05  -0.39 -999 -999 -999  37.3 -99.9 1029.0 -9.9 -9.999 -99.9 -99.99 -9.99
2019/12/07 08:48 EST    0.07  -0.39 -999 -999 -999  37.5 -99.9 1029.1 -9.9 -9.999 -99.9 -99.99 -9.99
2019/12/07 08:54 EST    0.09  -0.39 -999 -999 -999  37.7 -99.9 1029.1 -9.9 -9.999 -99.9 -99.99 -9.99
2019/12/07 09:00 EST    0.10  -0.39 -999 -999 -999  38.2 -99.9 1029.2 -9.9 -9.999 -99.9 -99.99 -9.99
2019/12/07 09:06 EST    0.12  -0.39 -999 -999 -999  38.4 -99.9 1029.1 -9.9 -9.999 -99.9 -99.99 -9.99
2019/12/07 09:12 EST    0.14  -0.38 -999 -999 -999  38.4 -99.9 1029.2 -9.9 -9.999 -99.9 -99.99 -9.99
2019/12/07 09:18 EST    0.16  -0.37 -999 -999 -999  38.6 -99.9 1029.2 -9.9 -9.999 -99.9 -99.99 -9.99
2019/12/07 09:24 EST    0.18  -0.37 -999 -999 -999  38.8 -99.9 1029.3 -9.9 -9.999 -99.9 -99.99 -9.99
2019/12/07 09:30 EST    0.20  -0.37 -999 -999 -999  38.9 -99.9 1029.3 -9.9 -9.999 -99.9 -99.99 -9.99
2019/12/07 09:36 EST    0.22  -0.36 -999 -999 -999  39.0 -99.9 1029.3 -9.9 -9.999 -99.9 -99.99 -9.99
2019/12/07 09:42 EST    0.24  -0.35 -999 -999 -999  39.3 -99.9 1029.4 -9.9 -9.999 -99.9 -99.99 -9.99
2019/12/07 09:48 EST    0.26  -0.34 -999 -999 -999  39.4 -99.9 1029.4 -9.9 -9.999 -99.9 -99.99 -9.99
2019/12/07 09:54 EST    0.29  -0.34 -999 -999 -999  39.6 -99.9 1029.5 -9.9 -9.999 -99.9 -99.99 -9.99
2019/12/07 10:00 EST    0.31  -0.32 -999 -999 -999  39.5 -99.9 1029.5 -9.9 -9.999 -99.9 -99.99 -9.99
2019/12/07 10:06 EST    0.33  -0.30 -999 -999 -999  39.9 -99.9 1029.5 -9.9 -9.999 -99.9 -99.99 -9.99
2019/12/07 10:12 EST    0.35  -0.28 -999 -999 -999  39.9 -99.9 1029.5 -9.9 -9.999 -99.9 -99.99 -9.99
2019/12/07 10:18 EST    0.37  -0.27 -999 -999 -999  40.1 -99.9 1029.5 -9.9 -9.999 -99.9 -99.99 -9.99
2019/12/07 10:24 EST    0.39  -0.25 -999 -999 -999  40.2 -99.9 1029.5 -9.9 -9.999 -99.9 -99.99 -9.99
2019/12/07 10:30 EST    0.41  -0.24 -999 -999 -999  40.2 -99.9 1029.5 -9.9 -9.999 -99.9 -99.99 -9.99
2019/12/07 10:36 EST    0.44  -0.21 -999 -999 -999  40.3 -99.9 1029.5 -9.9 -9.999 -99.9 -99.99 -9.99
2019/12/07 10:42 EST    0.46  -0.19 -999 -999 -999  40.5 -99.9 1029.5 -9.9 -9.999 -99.9 -99.99 -9.99
2019/12/07 10:48 EST    0.48  -0.19 -999 -999 -999  40.4 -99.9 1029.6 -9.9 -9.999 -99.9 -99.99 -9.99
2019/12/07 10:54 EST    0.50  -0.18 -999 -999 -999  40.3 -99.9 1029.6 -9.9 -9.999 -99.9 -99.99 -9.99
2019/12/07 11:00 EST    0.52  -0.16 -999 -999 -999  40.4 -99.9 1029.5 -9.9 -9.999 -99.9 -99.99 -9.99
2019/12/07 11:06 EST    0.54  -0.15 -999 -999 -999  40.9 -99.9 1029.5 -9.9 -9.999 -99.9 -99.99 -9.99
2019/12/07 11:12 EST    0.56  -0.13 -999 -999 -999  40.5 -99.9 1029.5 -9.9 -9.999 -99.9 -99.99 -9.99
2019/12/07 11:18 EST    0.59  -0.12 -999 -999 -999  40.5 -99.9 1029.4 -9.9 -9.999 -99.9 -99.99 -9.99
2019/12/07 11:24 EST    0.61  -0.10 -999 -999 -999  40.6 -99.9 1029.4 -9.9 -9.999 -99.9 -99.99 -9.99
2019/12/07 11:30 EST    0.63  -0.08 -999 -999 -999  41.4 -99.9 1029.4 -9.9 -9.999 -99.9 -99.99 -9.99
2019/12/07 11:36 EST    0.65  -0.06 -999 -999 -999  41.3 -99.9 1029.4 -9.9 -9.999 -99.9 -99.99 -9.99
2019/12/07 11:42 EST    0.67  -0.06 -999 -999 -999  41.7 -99.9 1029.4 -9.9 -9.999 -99.9 -99.99 -9.99
2019/12/07 11:48 EST    0.69  -0.04 -999 -999 -999  41.7 -99.9 1029.4 -9.9 -9.999 -99.9 -99.99 -9.99
2019/12/07 11:54 EST    0.71  -0.02 -999 -999 -999  41.9 -99.9 1029.3 -9.9 -9.999 -99.9 -99.99 -9.99
2019/12/07 12:00 EST    0.72   0.00 -999 -999 -999  41.7 -99.9 1029.3 -9.9 -9.999 -99.9 -99.99 -9.99
2019/12/07 12:06 EST    0.74   0.01 -999 -999 -999  41.8 -99.9 1029.2 -9.9 -9.999 -99.9 -99.99 -9.99
2019/12/07 12:12 EST    0.76   0.02 -999 -999 -999  41.7 -99.9 1029.2 -9.9 -9.999 -99.9 -99.99 -9.99
2019/12/07 12:18 EST    0.78   0.04 -999 -999 -999  41.6 -99.9 1029.1 -9.9 -9.999 -99.9 -99.99 -9.99
2019/12/07 12:24 EST    0.79   0.06 -999 -999 -999  41.3 -99.9 1029.1 -9.9 -9.999 -99.9 -99.99 -9.99
2019/12/07 12:30 EST    0.81   0.08 -999 -999 -999  41.2 -99.9 1029.0 -9.9 -9.999 -99.9 -99.99 -9.99
2019/12/07 12:36 EST    0.82   0.09 -999 -999 -999  41.6 -99.9 1028.9 -9.9 -9.999 -99.9 -99.99 -9.99
2019/12/07 12:42 EST    0.84   0.11 -999 -999 -999  41.4 -99.9 1028.9 -9.9 -9.999 -99.9 -99.99 -9.99
2019/12/07 12:48 EST    0.85   0.12 -999 -999 -999  41.6 -99.9 1028.8 -9.9 -9.999 -99.9 -99.99 -9.99
2019/12/07 12:54 EST    0.86   0.13 -999 -999 -999  41.7 -99.9 1028.7 -9.9 -9.999 -99.9 -99.99 -9.99
2019/12/07 13:00 EST    0.87   0.14 -999 -999 -999  41.5 -99.9 1028.7 -9.9 -9.999 -99.9 -99.99 -9.99
2019/12/07 13:06 EST    0.88   0.15 -999 -999 -999  41.8 -99.9 1028.8 -9.9 -9.999 -99.9 -99.99 -9.99
2019/12/07 13:12 EST    0.89   0.16 -999 -999 -999  41.8 -99.9 1028.7 -9.9 -9.999 -99.9 -99.99 -9.99
2019/12/07 13:18 EST    0.90   0.18 -999 -999 -999  42.0 -99.9 1028.7 -9.9 -9.999 -99.9 -99.99 -9.99
2019/12/07 13:24 EST    0.91   0.19 -999 -999 -999  41.6 -99.9 1028.7 -9.9 -9.999 -99.9 -99.99 -9.99
2019/12/07 13:30 EST    0.91   0.20 -999 -999 -999  41.9 -99.9 1028.7 -9.9 -9.999 -99.9 -99.99 -9.99
2019/12/07 13:36 EST    0.92   0.21 -999 -999 -999  41.8 -99.9 1028.7 -9.9 -9.999 -99.9 -99.99 -9.99
2019/12/07 13:42 EST    0.92   0.21 -999 -999 -999  41.8 -99.9 1028.7 -9.9 -9.999 -99.9 -99.99 -9.99
2019/12/07 13:48 EST    0.92   0.22 -999 -999 -999  42.1 -99.9 1028.7 -9.9 -9.999 -99.9 -99.99 -9.99
2019/12/07 13:54 EST    0.92   0.22 -999 -999 -999  42.1 -99.9 1028.7 -9.9 -9.999 -99.9 -99.99 -9.99
2019/12/07 14:00 EST    0.92   0.23 -999 -999 -999  42.1 -99.9 1028.7 -9.9 -9.999 -99.9 -99.99 -9.99
2019/12/07 14:06 EST    0.92   0.23 -999 -999 -999  42.2 -99.9 1028.7 -9.9 -9.999 -99.9 -99.99 -9.99
2019/12/07 14:12 EST    0.92   0.24 -999 -999 -999  42.2 -99.9 1028.8 -9.9 -9.999 -99.9 -99.99 -9.99
2019/12/07 14:18 EST    0.92   0.23 -999 -999 -999  42.3 -99.9 1028.8 -9.9 -9.999 -99.9 -99.99 -9.99
2019/12/07 14:24 EST    0.91   0.24 -999 -999 -999  42.2 -99.9 1028.8 -9.9 -9.999 -99.9 -99.99 -9.99
2019/12/07 14:30 EST    0.91   0.26 -999 -999 -999  42.2 -99.9 1028.8 -9.9 -9.999 -99.9 -99.99 -9.99
2019/12/07 14:36 EST    0.90   0.26 -999 -999 -999  42.0 -99.9 1028.8 -9.9 -9.999 -99.9 -99.99 -9.99
2019/12/07 14:42 EST    0.90   0.26 -999 -999 -999  42.3 -99.9 1028.8 -9.9 -9.999 -99.9 -99.99 -9.99
2019/12/07 14:48 EST    0.89   0.26 -999 -999 -999  42.3 -99.9 1028.9 -9.9 -9.999 -99.9 -99.99 -9.99
2019/12/07 14:54 EST    0.88   0.26 -999 -999 -999  42.3 -99.9 1028.9 -9.9 -9.999 -99.9 -99.99 -9.99
2019/12/07 15:00 EST    0.87   0.26 -999 -999 -999  42.3 -99.9 1028.9 -9.9 -9.999 -99.9 -99.99 -9.99
2019/12/07 15:06 EST    0.86   0.26 -999 -999 -999  42.4 -99.9 1029.0 -9.9 -9.999 -99.9 -99.99 -9.99
2019/12/07 15:12 EST    0.85   0.25 -999 -999 -999  42.3 -99.9 1029.0 -9.9 -9.999 -99.9 -99.99 -9.99
2019/12/07 15:18 EST    0.84   0.26 -999 -999 -999  42.2 -99.9 1029.1 -9.9 -9.999 -99.9 -99.99 -9.99
2019/12/07 15:24 EST    0.83   0.25 -999 -999 -999  42.4 -99.9 1029.1 -9.9 -9.999 -99.9 -99.99 -9.99
2019/12/07 15:30 EST    0.82   0.25 -999 -999 -999  42.4 -99.9 1029.2 -9.9 -9.999 -99.9 -99.99 -9.99
2019/12/07 15:36 EST    0.81   0.23 -999 -999 -999  42.4 -99.9 1029.2 -9.9 -9.999 -99.9 -99.99 -9.99
2019/12/07 15:42 EST    0.79   0.23 -999 -999 -999  42.3 -99.9 1029.3 -9.9 -9.999 -99.9 -99.99 -9.99
2019/12/07 15:48 EST    0.78   0.22 -999 -999 -999  42.4 -99.9 1029.3 -9.9 -9.999 -99.9 -99.99 -9.99
2019/12/07 15:54 EST    0.77   0.21 -999 -999 -999  42.2 -99.9 1029.3 -9.9 -9.999 -99.9 -99.99 -9.99
2019/12/07 16:00 EST    0.75   0.21 -999 -999 -999  41.8 -99.9 1029.3 -9.9 -9.999 -99.9 -99.99 -9.99
2019/12/07 16:06 EST    0.74   0.19 -999 -999 -999  41.9 -99.9 1029.4 -9.9 -9.999 -99.9 -99.99 -9.99
2019/12/07 16:12 EST    0.72   0.17 -999 -999 -999  41.6 -99.9 1029.5 -9.9 -9.999 -99.9 -99.99 -9.99
2019/12/07 16:18 EST    0.71   0.17 -999 -999 -999  41.4 -99.9 1029.5 -9.9 -9.999 -99.9 -99.99 -9.99
2019/12/07 16:24 EST    0.69   0.16 -999 -999 -999  41.4 -99.9 1029.5 -9.9 -9.999 -99.9 -99.99 -9.99
2019/12/07 16:30 EST    0.68   0.15 -999 -999 -999  41.2 -99.9 1029.6 -9.9 -9.999 -99.9 -99.99 -9.99
2019/12/07 16:36 EST    0.66   0.14 -999 -999 -999  41.0 -99.9 1029.7 -9.9 -9.999 -99.9 -99.99 -9.99
2019/12/07 16:42 EST    0.65   0.13 -999 -999 -999  40.8 -99.9 1029.7 -9.9 -9.999 -99.9 -99.99 -9.99
2019/12/07 16:48 EST    0.63   0.12 -999 -999 -999  40.6 -99.9 1029.8 -9.9 -9.999 -99.9 -99.99 -9.99
2019/12/07 16:54 EST    0.61   0.11 -999 -999 -999  40.3 -99.9 1029.8 -9.9 -9.999 -99.9 -99.99 -9.99
2019/12/07 17:00 EST    0.59   0.10 -999 -999 -999  40.1 -99.9 1029.9 -9.9 -9.999 -99.9 -99.99 -9.99
2019/12/07 17:06 EST    0.58   0.09 -999 -999 -999  39.7 -99.9 1030.0 -9.9 -9.999 -99.9 -99.99 -9.99
2019/12/07 17:12 EST    0.56   0.08 -999 -999 -999  39.9 -99.9 1030.1 -9.9 -9.999 -99.9 -99.99 -9.99
2019/12/07 17:18 EST    0.54   0.07 -999 -999 -999  40.0 -99.9 1030.2 -9.9 -9.999 -99.9 -99.99 -9.99
2019/12/07 17:24 EST    0.52   0.06 -999 -999 -999  39.9 -99.9 1030.2 -9.9 -9.999 -99.9 -99.99 -9.99
2019/12/07 17:30 EST    0.50   0.04 -999 -999 -999  39.3 -99.9 1030.2 -9.9 -9.999 -99.9 -99.99 -9.99
2019/12/07 17:36 EST    0.49   0.04 -999 -999 -999  39.1 -99.9 1030.3 -9.9 -9.999 -99.9 -99.99 -9.99
2019/12/07 17:42 EST    0.47   0.03 -999 -999 -999  38.8 -99.9 1030.3 -9.9 -9.999 -99.9 -99.99 -9.99
2019/12/07 17:48 EST    0.45   0.02 -999 -999 -999  38.6 -99.9 1030.4 -9.9 -9.999 -99.9 -99.99 -9.99
2019/12/07 17:54 EST    0.43   0.01 -999 -999 -999  38.5 -99.9 1030.4 -9.9 -9.999 -99.9 -99.99 -9.99
2019/12/07 18:00 EST    0.41   0.00 -999 -999 -999  38.7 -99.9 1030.4 -9.9 -9.999 -99.9 -99.99 -9.99
2019/12/07 18:06 EST    0.40  -0.01 -999 -999 -999  38.6 -99.9 1030.4 -9.9 -9.999 -99.9 -99.99 -9.99
2019/12/07 18:12 EST    0.38  -0.01 -999 -999 -999  38.0 -99.9 1030.4 -9.9 -9.999 -99.9 -99.99 -9.99
2019/12/07 18:18 EST    0.36  -0.02 -999 -999 -999  38.5 -99.9 1030.4 -9.9 -9.999 -99.9 -99.99 -9.99
2019/12/07 18:24 EST    0.34  -0.02 -999 -999 -999  38.6 -99.9 1030.5 -9.9 -9.999 -99.9 -99.99 -9.99
2019/12/07 18:30 EST    0.33  -0.03 -999 -999 -999  38.5 -99.9 1030.5 -9.9 -9.999 -99.9 -99.99 -9.99
2019/12/07 18:36 EST    0.31  -0.03 -999 -999 -999  38.2 -99.9 1030.6 -9.9 -9.999 -99.9 -99.99 -9.99
2019/12/07 18:42 EST    0.30  -0.03 -999 -999 -999  37.9 -99.9 1030.5 -9.9 -9.999 -99.9 -99.99 -9.99
2019/12/07 18:48 EST    0.28  -0.03 -999 -999 -999  37.7 -99.9 1030.6 -9.9 -9.999 -99.9 -99.99 -9.99
2019/12/07 18:54 EST    0.27  -0.04 -999 -999 -999  37.6 -99.9 1030.6 -9.9 -9.999 -99.9 -99.99 -9.99
2019/12/07 19:00 EST    0.26  -0.04 -999 -999 -999  36.8 -99.9 1030.6 -9.9 -9.999 -99.9 -99.99 -9.99
2019/12/07 19:06 EST    0.25  -0.04 -999 -999 -999  36.6 -99.9 1030.8 -9.9 -9.999 -99.9 -99.99 -9.99
2019/12/07 19:12 EST    0.24  -0.04 -999 -999 -999  36.4 -99.9 1030.9 -9.9 -9.999 -99.9 -99.99 -9.99
2019/12/07 19:18 EST    0.23  -0.03 -999 -999 -999  36.3 -99.9 1030.9 -9.9 -9.999 -99.9 -99.99 -9.99
2019/12/07 19:24 EST    0.22  -0.05 -999 -999 -999  36.3 -99.9 1031.1 -9.9 -9.999 -99.9 -99.99 -9.99
2019/12/07 19:30 EST    0.21  -0.04 -999 -999 -999  36.0 -99.9 1031.1 -9.9 -9.999 -99.9 -99.99 -9.99
2019/12/07 19:36 EST    0.21  -0.02 -999 -999 -999  35.9 -99.9 1031.2 -9.9 -9.999 -99.9 -99.99 -9.99
2019/12/07 19:42 EST    0.21  -0.02 -999 -999 -999  36.2 -99.9 1031.2 -9.9 -9.999 -99.9 -99.99 -9.99
2019/12/07 19:48 EST    0.20  -0.02 -999 -999 -999  36.0 -99.9 1031.3 -9.9 -9.999 -99.9 -99.99 -9.99
2019/12/07 19:54 EST    0.20  -0.02 -999 -999 -999  35.8 -99.9 1031.3 -9.9 -9.999 -99.9 -99.99 -9.99
2019/12/07 20:00 EST    0.20  -0.00 -999 -999 -999  35.4 -99.9 1031.3 -9.9 -9.999 -99.9 -99.99 -9.99
2019/12/07 20:06 EST    0.20   0.01 -999 -999 -999  35.7 -99.9 1031.3 -9.9 -9.999 -99.9 -99.99 -9.99
2019/12/07 20:12 EST    0.20   0.03 -999 -999 -999  36.2 -99.9 1031.3 -9.9 -9.999 -99.9 -99.99 -9.99
2019/12/07 20:18 EST    0.21   0.03 -999 -999 -999  36.7 -99.9 1031.3 -9.9 -9.999 -99.9 -99.99 -9.99
2019/12/07 20:24 EST    0.21   0.05 -999 -999 -999  37.4 -99.9 1031.3 -9.9 -9.999 -99.9 -99.99 -9.99
2019/12/07 20:30 EST    0.22   0.06 -999 -999 -999  36.7 -99.9 1031.3 -9.9 -9.999 -99.9 -99.99 -9.99
2019/12/07 20:36 EST    0.23   0.07 -999 -999 -999  36.0 -99.9 1031.3 -9.9 -9.999 -99.9 -99.99 -9.99
2019/12/07 20:42 EST    0.23   0.09 -999 -999 -999  36.0 -99.9 1031.3 -9.9 -9.999 -99.9 -99.99 -9.99
2019/12/07 20:48 EST    0.24   0.10 -999 -999 -999  35.8 -99.9 1031.4 -9.9 -9.999 -99.9 -99.99 -9.99
2019/12/07 20:54 EST    0.25   0.12 -999 -999 -999  35.6 -99.9 1031.4 -9.9 -9.999 -99.9 -99.99 -9.99
2019/12/07 21:00 EST    0.26   0.14 -999 -999 -999  35.4 -99.9 1031.5 -9.9 -9.999 -99.9 -99.99 -9.99
2019/12/07 21:06 EST    0.27   0.16 -999 -999 -999  35.1 -99.9 1031.7 -9.9 -9.999 -99.9 -99.99 -9.99
2019/12/07 21:12 EST    0.29   0.17 -999 -999 -999  34.7 -99.9 1031.8 -9.9 -9.999 -99.9 -99.99 -9.99
2019/12/07 21:18 EST    0.30   0.20 -999 -999 -999  34.7 -99.9 1031.9 -9.9 -9.999 -99.9 -99.99 -9.99
2019/12/07 21:24 EST    0.31   0.23 -999 -999 -999  34.6 -99.9 1031.9 -9.9 -9.999 -99.9 -99.99 -9.99
2019/12/07 21:30 EST    0.32   0.25 -999 -999 -999  34.5 -99.9 1031.9 -9.9 -9.999 -99.9 -99.99 -9.99
2019/12/07 21:36 EST    0.34   0.27 -999 -999 -999  34.4 -99.9 1031.8 -9.9 -9.999 -99.9 -99.99 -9.99
2019/12/07 21:42 EST    0.35   0.31 -999 -999 -999  34.2 -99.9 1031.7 -9.9 -9.999 -99.9 -99.99 -9.99
2019/12/07 21:48 EST    0.37   0.33 -999 -999 -999  34.5 -99.9 1031.8 -9.9 -9.999 -99.9 -99.99 -9.99
2019/12/07 21:54 EST    0.38   0.36 -999 -999 -999  34.9 -99.9 1031.7 -9.9 -9.999 -99.9 -99.99 -9.99
2019/12/07 22:00 EST    0.40   0.40 -999 -999 -999  35.1 -99.9 1031.7 -9.9 -9.999 -99.9 -99.99 -9.99
2019/12/07 22:06 EST    0.41   0.43 -999 -999 -999  34.7 -99.9 1031.8 -9.9 -9.999 -99.9 -99.99 -9.99
2019/12/07 22:12 EST    0.43   0.44 -999 -999 -999  34.6 -99.9 1032.0 -9.9 -9.999 -99.9 -99.99 -9.99
2019/12/07 22:18 EST    0.44   0.49 -999 -999 -999  34.4 -99.9 1032.0 -9.9 -9.999 -99.9 -99.99 -9.99
2019/12/07 22:24 EST    0.46   0.50 -999 -999 -999  34.3 -99.9 1032.0 -9.9 -9.999 -99.9 -99.99 -9.99
2019/12/07 22:30 EST    0.47   0.52 -999 -999 -999  34.4 -99.9 1032.0 -9.9 -9.999 -99.9 -99.99 -9.99
2019/12/07 22:36 EST    0.49   0.56 -999 -999 -999  34.0 -99.9 1031.9 -9.9 -9.999 -99.9 -99.99 -9.99
2019/12/07 22:42 EST    0.50   0.58 -999 -999 -999  33.8 -99.9 1031.9 -9.9 -9.999 -99.9 -99.99 -9.99
2019/12/07 22:48 EST    0.52   0.62 -999 -999 -999  33.6 -99.9 1032.0 -9.9 -9.999 -99.9 -99.99 -9.99
2019/12/07 22:54 EST    0.53   0.63 -999 -999 -999  34.2 -99.9 1032.0 -9.9 -9.999 -99.9 -99.99 -9.99
2019/12/07 23:00 EST    0.55   0.67 -999 -999 -999  34.0 -99.9 1032.1 -9.9 -9.999 -99.9 -99.99 -9.99
2019/12/07 23:06 EST    0.56   0.70 -999 -999 -999  33.5 -99.9 1032.1 -9.9 -9.999 -99.9 -99.99 -9.99
2019/12/07 23:12 EST    0.58   0.72 -999 -999 -999  33.2 -99.9 1032.1 -9.9 -9.999 -99.9 -99.99 -9.99
2019/12/07 23:18 EST    0.59   0.76 -999 -999 -999  32.9 -99.9 1032.2 -9.9 -9.999 -99.9 -99.99 -9.99
2019/12/07 23:24 EST    0.60   0.77 -999 -999 -999  33.0 -99.9 1032.2 -9.9 -9.999 -99.9 -99.99 -9.99
2019/12/07 23:30 EST    0.62   0.79 -999 -999 -999  33.1 -99.9 1032.2 -9.9 -9.999 -99.9 -99.99 -9.99
2019/12/07 23:36 EST    0.63   0.83 -999 -999 -999  33.1 -99.9 1032.3 -9.9 -9.999 -99.9 -99.99 -9.99
2019/12/07 23:42 EST    0.64   0.85 -999 -999 -999  33.1 -99.9 1032.3 -9.9 -9.999 -99.9 -99.99 -9.99
2019/12/07 23:48 EST    0.66   0.86 -999 -999 -999  32.8 -99.9 1032.3 -9.9 -9.999 -99.9 -99.99 -9.99
2019/12/07 23:54 EST    0.67   0.90 -999 -999 -999  32.9 -99.9 1032.3 -9.9 -9.999 -99.9 -99.99 -9.99
2019/12/08 00:00 EST    0.68   0.91 -999 -999 -999  32.9 -99.9 1032.3 -9.9 -9.999 -99.9 -99.99 -9.99
2019/12/08 00:06 EST    0.69   0.94 -999 -999 -999  32.8 -99.9 1032.4 -9.9 -9.999 -99.9 -99.99 -9.99
2019/12/08 00:12 EST    0.71   0.96 -999 -999 -999  32.3 -99.9 1032.4 -9.9 -9.999 -99.9 -99.99 -9.99
2019/12/08 00:18 EST    0.72   0.97 -999 -999 -999  32.4 -99.9 1032.4 -9.9 -9.999 -99.9 -99.99 -9.99
2019/12/08 00:24 EST    0.73   0.99 -999 -999 -999  32.6 -99.9 1032.4 -9.9 -9.999 -99.9 -99.99 -9.99
2019/12/08 00:30 EST    0.74   1.01 -999 -999 -999  32.5 -99.9 1032.4 -9.9 -9.999 -99.9 -99.99 -9.99
2019/12/08 00:36 EST    0.75   1.03 -999 -999 -999  32.2 -99.9 1032.4 -9.9 -9.999 -99.9 -99.99 -9.99
2019/12/08 00:42 EST    0.76   1.04 -999 -999 -999  32.3 -99.9 1032.3 -9.9 -9.999 -99.9 -99.99 -9.99
2019/12/08 00:48 EST    0.76   1.05 -999 -999 -999  32.3 -99.9 1032.4 -9.9 -9.999 -99.9 -99.99 -9.99
2019/12/08 00:54 EST    0.77   1.07 -999 -999 -999  32.4 -99.9 1032.3 -9.9 -9.999 -99.9 -99.99 -9.99
2019/12/08 01:00 EST    0.78   1.09 -999 -999 -999  32.3 -99.9 1032.4 -9.9 -9.999 -99.9 -99.99 -9.99
2019/12/08 01:06 EST    0.78   1.11 -999 -999 -999  32.4 -99.9 1032.3 -9.9 -9.999 -99.9 -99.99 -9.99
2019/12/08 01:12 EST    0.79   1.13 -999 -999 -999  32.3 -99.9 1032.3 -9.9 -9.999 -99.9 -99.99 -9.99
2019/12/08 01:18 EST    0.79   1.13 -999 -999 -999  32.2 -99.9 1032.3 -9.9 -9.999 -99.9 -99.99 -9.99
2019/12/08 01:24 EST    0.79   1.12 -999 -999 -999  32.3 -99.9 1032.3 -9.9 -9.999 -99.9 -99.99 -9.99
2019/12/08 01:30 EST    0.80   1.15 -999 -999 -999  32.2 -99.9 1032.3 -9.9 -9.999 -99.9 -99.99 -9.99
2019/12/08 01:36 EST    0.80   1.15 -999 -999 -999  31.8 -99.9 1032.3 -9.9 -9.999 -99.9 -99.99 -9.99
2019/12/08 01:42 EST    0.80   1.16 -999 -999 -999  31.8 -99.9 1032.4 -9.9 -9.999 -99.9 -99.99 -9.99
2019/12/08 01:48 EST    0.79   1.17 -999 -999 -999  31.4 -99.9 1032.5 -9.9 -9.999 -99.9 -99.99 -9.99
2019/12/08 01:54 EST    0.79   1.18 -999 -999 -999  31.7 -99.9 1032.5 -9.9 -9.999 -99.9 -99.99 -9.99
2019/12/08 02:00 EST    0.79   1.18 -999 -999 -999  31.9 -99.9 1032.5 -9.9 -9.999 -99.9 -99.99 -9.99
2019/12/08 02:06 EST    0.78   1.18 -999 -999 -999  32.0 -99.9 1032.5 -9.9 -9.999 -99.9 -99.99 -9.99
2019/12/08 02:12 EST    0.78   1.19 -999 -999 -999  32.0 -99.9 1032.6 -9.9 -9.999 -99.9 -99.99 -9.99
2019/12/08 02:18 EST    0.77   1.18 -999 -999 -999  31.8 -99.9 1032.6 -9.9 -9.999 -99.9 -99.99 -9.99
2019/12/08 02:24 EST    0.76   1.18 -999 -999 -999  32.1 -99.9 1032.6 -9.9 -9.999 -99.9 -99.99 -9.99
2019/12/08 02:30 EST    0.75   1.21 -999 -999 -999  32.7 -99.9 1032.6 -9.9 -9.999 -99.9 -99.99 -9.99
2019/12/08 02:36 EST    0.74   1.18 -999 -999 -999  32.1 -99.9 1032.7 -9.9 -9.999 -99.9 -99.99 -9.99
2019/12/08 02:42 EST    0.73   1.17 -999 -999 -999  32.1 -99.9 1032.7 -9.9 -9.999 -99.9 -99.99 -9.99
2019/12/08 02:48 EST    0.72   1.17 -999 -999 -999  32.3 -99.9 1032.7 -9.9 -9.999 -99.9 -99.99 -9.99
2019/12/08 02:54 EST    0.71   1.16 -999 -999 -999  32.3 -99.9 1032.6 -9.9 -9.999 -99.9 -99.99 -9.99
2019/12/08 03:00 EST    0.70   1.17 -999 -999 -999  32.6 -99.9 1032.6 -9.9 -9.999 -99.9 -99.99 -9.99
2019/12/08 03:06 EST    0.68   1.16 -999 -999 -999  33.0 -99.9 1032.5 -9.9 -9.999 -99.9 -99.99 -9.99
2019/12/08 03:12 EST    0.67   1.16 -999 -999 -999  34.7 -99.9 1032.5 -9.9 -9.999 -99.9 -99.99 -9.99
2019/12/08 03:18 EST    0.65   1.15 -999 -999 -999  35.7 -99.9 1032.5 -9.9 -9.999 -99.9 -99.99 -9.99
2019/12/08 03:24 EST    0.64   1.13 -999 -999 -999  35.7 -99.9 1032.6 -9.9 -9.999 -99.9 -99.99 -9.99
2019/12/08 03:30 EST    0.62   1.12 -999 -999 -999  35.7 -99.9 1032.5 -9.9 -9.999 -99.9 -99.99 -9.99
2019/12/08 03:36 EST    0.60   1.11 -999 -999 -999  35.4 -99.9 1032.6 -9.9 -9.999 -99.9 -99.99 -9.99
2019/12/08 03:42 EST    0.58   1.08 -999 -999 -999  35.7 -99.9 1032.6 -9.9 -9.999 -99.9 -99.99 -9.99
2019/12/08 03:48 EST    0.57   1.08 -999 -999 -999  36.1 -99.9 1032.6 -9.9 -9.999 -99.9 -99.99 -9.99
2019/12/08 03:54 EST    0.55   1.07 -999 -999 -999  36.0 -99.9 1032.6 -9.9 -9.999 -99.9 -99.99 -9.99
2019/12/08 04:00 EST    0.53   1.05 -999 -999 -999  36.1 -99.9 1032.7 -9.9 -9.999 -99.9 -99.99 -9.99
2019/12/08 04:06 EST    0.51   1.03 -999 -999 -999  36.0 -99.9 1032.7 -9.9 -9.999 -99.9 -99.99 -9.99
2019/12/08 04:12 EST    0.49   1.02 -999 -999 -999  36.0 -99.9 1032.7 -9.9 -9.999 -99.9 -99.99 -9.99
2019/12/08 04:18 EST    0.47   1.00 -999 -999 -999  35.8 -99.9 1032.8 -9.9 -9.999 -99.9 -99.99 -9.99
2019/12/08 04:24 EST    0.45   0.99 -999 -999 -999  35.6 -99.9 1032.8 -9.9 -9.999 -99.9 -99.99 -9.99
2019/12/08 04:30 EST    0.43   0.97 -999 -999 -999  35.6 -99.9 1032.7 -9.9 -9.999 -99.9 -99.99 -9.99
2019/12/08 04:36 EST    0.41   0.97 -999 -999 -999  36.1 -99.9 1032.6 -9.9 -9.999 -99.9 -99.99 -9.99
2019/12/08 04:42 EST    0.39   0.95 -999 -999 -999  36.3 -99.9 1032.7 -9.9 -9.999 -99.9 -99.99 -9.99
2019/12/08 04:48 EST    0.37   0.94 -999 -999 -999  36.6 -99.9 1032.7 -9.9 -9.999 -99.9 -99.99 -9.99
2019/12/08 04:54 EST    0.35   0.92 -999 -999 -999  36.7 -99.9 1032.7 -9.9 -9.999 -99.9 -99.99 -9.99
2019/12/08 05:00 EST    0.33   0.90 -999 -999 -999  36.6 -99.9 1032.7 -9.9 -9.999 -99.9 -99.99 -9.99
2019/12/08 05:06 EST    0.31   0.89 -999 -999 -999  36.5 -99.9 1032.7 -9.9 -9.999 -99.9 -99.99 -9.99
2019/12/08 05:12 EST    0.29   0.88 -999 -999 -999  36.4 -99.9 1032.8 -9.9 -9.999 -99.9 -99.99 -9.99
2019/12/08 05:18 EST    0.27   0.86 -999 -999 -999  36.4 -99.9 1032.8 -9.9 -9.999 -99.9 -99.99 -9.99
2019/12/08 05:24 EST    0.25   0.84 -999 -999 -999  36.5 -99.9 1032.8 -9.9 -9.999 -99.9 -99.99 -9.99
2019/12/08 05:30 EST    0.23   0.82 -999 -999 -999  36.6 -99.9 1032.8 -9.9 -9.999 -99.9 -99.99 -9.99
2019/12/08 05:36 EST    0.21   0.80 -999 -999 -999  36.6 -99.9 1032.7 -9.9 -9.999 -99.9 -99.99 -9.99
2019/12/08 05:42 EST    0.19   0.78 -999 -999 -999  36.6 -99.9 1032.7 -9.9 -9.999 -99.9 -99.99 -9.99
2019/12/08 05:48 EST    0.17   0.77 -999 -999 -999  36.6 -99.9 1032.7 -9.9 -9.999 -99.9 -99.99 -9.99
2019/12/08 05:54 EST    0.15   0.76 -999 -999 -999  36.5 -99.9 1032.6 -9.9 -9.999 -99.9 -99.99 -9.99
2019/12/08 06:00 EST    0.13   0.76 -999 -999 -999  36.4 -99.9 1032.6 -9.9 -9.999 -99.9 -99.99 -9.99
2019/12/08 06:06 EST    0.11   0.76 -999 -999 -999  36.5 -99.9 1032.6 -9.9 -9.999 -99.9 -99.99 -9.99
2019/12/08 06:12 EST    0.09   0.75 -999 -999 -999  36.9 -99.9 1032.7 -9.9 -9.999 -99.9 -99.99 -9.99
2019/12/08 06:18 EST    0.07   0.72 -999 -999 -999  37.0 -99.9 1032.7 -9.9 -9.999 -99.9 -99.99 -9.99
2019/12/08 06:24 EST    0.05   0.70 -999 -999 -999  36.8 -99.9 1032.8 -9.9 -9.999 -99.9 -99.99 -9.99
2019/12/08 06:30 EST    0.03   0.69 -999 -999 -999  36.7 -99.9 1032.8 -9.9 -9.999 -99.9 -99.99 -9.99
2019/12/08 06:36 EST    0.01   0.67 -999 -999 -999  36.7 -99.9 1032.9 -9.9 -9.999 -99.9 -99.99 -9.99
2019/12/08 06:42 EST   -0.01   0.66 -999 -999 -999  36.7 -99.9 1033.0 -9.9 -9.999 -99.9 -99.99 -9.99
2019/12/08 06:48 EST   -0.02   0.65 -999 -999 -999  36.9 -99.9 1033.0 -9.9 -9.999 -99.9 -99.99 -9.99
2019/12/08 06:54 EST   -0.04   0.63 -999 -999 -999  36.6 -99.9 1033.0 -9.9 -9.999 -99.9 -99.99 -9.99
2019/12/08 07:00 EST   -0.05   0.62 -999 -999 -999  37.0 -99.9 1033.0 -9.9 -9.999 -99.9 -99.99 -9.99
2019/12/08 07:06 EST   -0.07   0.61 -999 -999 -999  36.8 -99.9 1033.0 -9.9 -9.999 -99.9 -99.99 -9.99
2019/12/08 07:12 EST   -0.08   0.61 -999 -999 -999  36.8 -99.9 1033.1 -9.9 -9.999 -99.9 -99.99 -9.99
2019/12/08 07:18 EST   -0.09   0.60 -999 -999 -999  36.9 -99.9 1033.0 -9.9 -9.999 -99.9 -99.99 -9.99
2019/12/08 07:24 EST   -0.10   0.59 -999 -999 -999  37.3 -99.9 1033.0 -9.9 -9.999 -99.9 -99.99 -9.99
2019/12/08 07:30 EST   -0.11   0.59 -999 -999 -999  37.6 -99.9 1033.0 -9.9 -9.999 -99.9 -99.99 -9.99
2019/12/08 07:36 EST   -0.12   0.57 -999 -999 -999  37.9 -99.9 1033.0 -9.9 -9.999 -99.9 -99.99 -9.99
2019/12/08 07:42 EST   -0.13   0.56 -999 -999 -999  38.0 -99.9 1033.1 -9.9 -9.999 -99.9 -99.99 -9.99
2019/12/08 07:48 EST   -0.13   0.56 -999 -999 -999  38.4 -99.9 1033.1 -9.9 -9.999 -99.9 -99.99 -9.99
2019/12/08 07:54 EST   -0.13   0.56 -999 -999 -999  38.8 -99.9 1033.1 -9.9 -9.999 -99.9 -99.99 -9.99
2019/12/08 08:00 EST   -0.14   0.57 -999 -999 -999  39.0 -99.9 1033.1 -9.9 -9.999 -99.9 -99.99 -9.99
2019/12/08 08:06 EST   -0.14   0.58 -999 -999 -999  39.0 -99.9 1033.1 -9.9 -9.999 -99.9 -99.99 -9.99
2019/12/08 08:12 EST   -0.14   0.58 -999 -999 -999  38.5 -99.9 1033.0 -9.9 -9.999 -99.9 -99.99 -9.99
2019/12/08 08:18 EST   -0.13   0.58 -999 -999 -999  38.4 -99.9 1033.1 -9.9 -9.999 -99.9 -99.99 -9.99
2019/12/08 08:24 EST   -0.13   0.59 -999 -999 -999  38.4 -99.9 1033.1 -9.9 -9.999 -99.9 -99.99 -9.99
2019/12/08 08:30 EST   -0.12   0.59 -999 -999 -999  38.5 -99.9 1033.1 -9.9 -9.999 -99.9 -99.99 -9.99
2019/12/08 08:36 EST   -0.12   0.60 -999 -999 -999  38.9 -99.9 1033.1 -9.9 -9.999 -99.9 -99.99 -9.99
2019/12/08 08:42 EST   -0.11   0.61 -999 -999 -999  38.8 -99.9 1033.2 -9.9 -9.999 -99.9 -99.99 -9.99
2019/12/08 08:48 EST   -0.10   0.62 -999 -999 -999  38.8 -99.9 1033.3 -9.9 -9.999 -99.9 -99.99 -9.99
2019/12/08 08:54 EST   -0.09   0.64 -999 -999 -999  38.7 -99.9 1033.2 -9.9 -9.999 -99.9 -99.99 -9.99
2019/12/08 09:00 EST   -0.07   0.65 -999 -999 -999  38.8 -99.9 1033.3 -9.9 -9.999 -99.9 -99.99 -9.99
2019/12/08 09:06 EST   -0.06   0.66 -999 -999 -999  38.7 -99.9 1033.3 -9.9 -9.999 -99.9 -99.99 -9.99
2019/12/08 09:12 EST   -0.04   0.68 -999 -999 -999  38.8 -99.9 1033.3 -9.9 -9.999 -99.9 -99.99 -9.99
2019/12/08 09:18 EST   -0.03   0.70 -999 -999 -999  39.0 -99.9 1033.3 -9.9 -9.999 -99.9 -99.99 -9.99
2019/12/08 09:24 EST   -0.01   0.72 -999 -999 -999  39.1 -99.9 1033.3 -9.9 -9.999 -99.9 -99.99 -9.99
2019/12/08 09:30 EST    0.01   0.74 -999 -999 -999  39.1 -99.9 1033.3 -9.9 -9.999 -99.9 -99.99 -9.99
2019/12/08 09:36 EST    0.03   0.76 -999 -999 -999  39.3 -99.9 1033.4 -9.9 -9.999 -99.9 -99.99 -9.99
2019/12/08 09:42 EST    0.05   0.78 -999 -999 -999  39.3 -99.9 1033.3 -9.9 -9.999 -99.9 -99.99 -9.99
2019/12/08 09:48 EST    0.07   0.81 -999 -999 -999  39.4 -99.9 1033.3 -9.9 -9.999 -99.9 -99.99 -9.99
2019/12/08 09:54 EST    0.09   0.83 -999 -999 -999  39.6 -99.9 1033.3 -9.9 -9.999 -99.9 -99.99 -9.99
2019/12/08 10:00 EST    0.11   0.86 -999 -999 -999  39.9 -99.9 1033.4 -9.9 -9.999 -99.9 -99.99 -9.99
2019/12/08 10:06 EST    0.14   0.89 -999 -999 -999  40.0 -99.9 1033.4 -9.9 -9.999 -99.9 -99.99 -9.99
2019/12/08 10:12 EST    0.16   0.92 -999 -999 -999  40.1 -99.9 1033.4 -9.9 -9.999 -99.9 -99.99 -9.99
2019/12/08 10:18 EST    0.18   0.94 -999 -999 -999  40.5 -99.9 1033.4 -9.9 -9.999 -99.9 -99.99 -9.99
2019/12/08 10:24 EST    0.21   0.97 -999 -999 -999  40.6 -99.9 1033.2 -9.9 -9.999 -99.9 -99.99 -9.99
2019/12/08 10:30 EST    0.23   0.99 -999 -999 -999  40.5 -99.9 1033.2 -9.9 -9.999 -99.9 -99.99 -9.99
2019/12/08 10:36 EST    0.25   1.01 -999 -999 -999  40.7 -99.9 1033.2 -9.9 -9.999 -99.9 -99.99 -9.99
2019/12/08 10:42 EST    0.28   1.03 -999 -999 -999  40.8 -99.9 1033.1 -9.9 -9.999 -99.9 -99.99 -9.99
2019/12/08 10:48 EST    0.30   1.06 -999 -999 -999  41.0 -99.9 1033.0 -9.9 -9.999 -99.9 -99.99 -9.99
2019/12/08 10:54 EST    0.33   1.08 -999 -999 -999  41.1 -99.9 1032.9 -9.9 -9.999 -99.9 -99.99 -9.99
2019/12/08 11:00 EST    0.35   1.11 -999 -999 -999  41.4 -99.9 1032.8 -9.9 -9.999 -99.9 -99.99 -9.99
2019/12/08 11:06 EST    0.38   1.14 -999 -999 -999  41.3 -99.9 1032.7 -9.9 -9.999 -99.9 -99.99 -9.99
2019/12/08 11:12 EST    0.40   1.16 -999 -999 -999  41.2 -99.9 1032.6 -9.9 -9.999 -99.9 -99.99 -9.99
2019/12/08 11:18 EST    0.43   1.19 -999 -999 -999  41.6 -99.9 1032.4 -9.9 -9.999 -99.9 -99.99 -9.99
2019/12/08 11:24 EST    0.45   1.21 -999 -999 -999  41.7 -99.9 1032.4 -9.9 -9.999 -99.9 -99.99 -9.99
2019/12/08 11:30 EST    0.48   1.24 -999 -999 -999  41.8 -99.9 1032.3 -9.9 -9.999 -99.9 -99.99 -9.99
2019/12/08 11:36 EST    0.50   1.26 -999 -999 -999  42.1 -99.9 1032.2 -9.9 -9.999 -99.9 -99.99 -9.99
2019/12/08 11:42 EST    0.52   1.28 -999 -999 -999  42.3 -99.9 1032.1 -9.9 -9.999 -99.9 -99.99 -9.99
2019/12/08 11:48 EST    0.55   1.30 -999 -999 -999  42.4 -99.9 1032.0 -9.9 -9.999 -99.9 -99.99 -9.99
2019/12/08 11:54 EST    0.57   1.33 -999 -999 -999  42.5 -99.9 1031.9 -9.9 -9.999 -99.9 -99.99 -9.99
2019/12/08 12:00 EST    0.60   1.34 -999 -999 -999  42.6 -99.9 1031.8 -9.9 -9.999 -99.9 -99.99 -9.99
2019/12/08 12:06 EST    0.62   1.37 -999 -999 -999  43.0 -99.9 1031.7 -9.9 -9.999 -99.9 -99.99 -9.99
2019/12/08 12:12 EST    0.64   1.39 -999 -999 -999  43.1 -99.9 1031.7 -9.9 -9.999 -99.9 -99.99 -9.99
2019/12/08 12:18 EST    0.67   1.41 -999 -999 -999  42.9 -99.9 1031.6 -9.9 -9.999 -99.9 -99.99 -9.99
2019/12/08 12:24 EST    0.69   1.43 -999 -999 -999  43.2 -99.9 1031.4 -9.9 -9.999 -99.9 -99.99 -9.99
2019/12/08 12:30 EST    0.71   1.46 -999 -999 -999  43.3 -99.9 1031.3 -9.9 -9.999 -99.9 -99.99 -9.99
2019/12/08 12:36 EST    0.73   1.47 -999 -999 -999  43.3 -99.9 1031.3 -9.9 -9.999 -99.9 -99.99 -9.99
2019/12/08 12:42 EST    0.75   1.48 -999 -999 -999  43.5 -99.9 1031.2 -9.9 -9.999 -99.9 -99.99 -9.99
2019/12/08 12:48 EST    0.78   1.49 -999 -999 -999  43.7 -99.9 1031.1 -9.9 -9.999 -99.9 -99.99 -9.99
2019/12/08 12:54 EST    0.80   1.51 -999 -999 -999  44.0 -99.9 1031.0 -9.9 -9.999 -99.9 -99.99 -9.99
2019/12/08 13:00 EST    0.82   1.54 -999 -999 -999  44.2 -99.9 1030.9 -9.9 -9.999 -99.9 -99.99 -9.99
2019/12/08 13:06 EST    0.83   1.55 -999 -999 -999  44.1 -99.9 1030.9 -9.9 -9.999 -99.9 -99.99 -9.99
2019/12/08 13:12 EST    0.85   1.57 -999 -999 -999  44.1 -99.9 1030.8 -9.9 -9.999 -99.9 -99.99 -9.99
2019/12/08 13:18 EST    0.87   1.59 -999 -999 -999  44.3 -99.9 1030.7 -9.9 -9.999 -99.9 -99.99 -9.99
2019/12/08 13:24 EST    0.89   1.60 -999 -999 -999  44.1 -99.9 1030.6 -9.9 -9.999 -99.9 -99.99 -9.99
2019/12/08 13:30 EST    0.90   1.62 -999 -999 -999  44.2 -99.9 1030.4 -9.9 -9.999 -99.9 -99.99 -9.99
2019/12/08 13:36 EST    0.92   1.63 -999 -999 -999  44.0 -99.9 1030.2 -9.9 -9.999 -99.9 -99.99 -9.99
2019/12/08 13:42 EST    0.93   1.64 -999 -999 -999  44.1 -99.9 1030.0 -9.9 -9.999 -99.9 -99.99 -9.99
2019/12/08 13:48 EST    0.94   1.66 -999 -999 -999  43.9 -99.9 1029.9 -9.9 -9.999 -99.9 -99.99 -9.99
2019/12/08 13:54 EST    0.95   1.67 -999 -999 -999  43.9 -99.9 1029.7 -9.9 -9.999 -99.9 -99.99 -9.99
2019/12/08 14:00 EST    0.96   1.67 -999 -999 -999  43.8 -99.9 1029.7 -9.9 -9.999 -99.9 -99.99 -9.99
2019/12/08 14:06 EST    0.97   1.68 -999 -999 -999  43.8 -99.9 1029.6 -9.9 -9.999 -99.9 -99.99 -9.99
2019/12/08 14:12 EST    0.98   1.69 -999 -999 -999  44.0 -99.9 1029.7 -9.9 -9.999 -99.9 -99.99 -9.99
2019/12/08 14:18 EST    0.99   1.70 -999 -999 -999  44.0 -99.9 1029.7 -9.9 -9.999 -99.9 -99.99 -9.99
2019/12/08 14:24 EST    0.99   1.72 -999 -999 -999  44.2 -99.9 1029.6 -9.9 -9.999 -99.9 -99.99 -9.99
2019/12/08 14:30 EST    1.00   1.71 -999 -999 -999  44.7 -99.9 1029.5 -9.9 -9.999 -99.9 -99.99 -9.99
2019/12/08 14:36 EST    1.00   1.73 -999 -999 -999  44.7 -99.9 1029.5 -9.9 -9.999 -99.9 -99.99 -9.99
2019/12/08 14:42 EST    1.00   1.72 -999 -999 -999  45.0 -99.9 1029.5 -9.9 -9.999 -99.9 -99.99 -9.99
2019/12/08 14:48 EST    1.00   1.73 -999 -999 -999  44.9 -99.9 1029.4 -9.9 -9.999 -99.9 -99.99 -9.99
2019/12/08 14:54 EST    1.00   1.73 -999 -999 -999  45.1 -99.9 1029.3 -9.9 -9.999 -99.9 -99.99 -9.99
2019/12/08 15:00 EST    1.00   1.73 -999 -999 -999  45.1 -99.9 1029.3 -9.9 -9.999 -99.9 -99.99 -9.99
2019/12/08 15:06 EST    0.99   1.73 -999 -999 -999  45.4 -99.9 1029.2 -9.9 -9.999 -99.9 -99.99 -9.99
2019/12/08 15:12 EST    0.99   1.73 -999 -999 -999  45.0 -99.9 1029.1 -9.9 -9.999 -99.9 -99.99 -9.99
2019/12/08 15:18 EST    0.99   1.73 -999 -999 -999  44.7 -99.9 1029.0 -9.9 -9.999 -99.9 -99.99 -9.99
2019/12/08 15:24 EST    0.98   1.72 -999 -999 -999  44.7 -99.9 1029.0 -9.9 -9.999 -99.9 -99.99 -9.99
2019/12/08 15:30 EST    0.97   1.71 -999 -999 -999  44.7 -99.9 1028.9 -9.9 -9.999 -99.9 -99.99 -9.99
2019/12/08 15:36 EST    0.96   1.69 -999 -999 -999  44.5 -99.9 1028.8 -9.9 -9.999 -99.9 -99.99 -9.99
2019/12/08 15:42 EST    0.96   1.68 -999 -999 -999  44.5 -99.9 1028.8 -9.9 -9.999 -99.9 -99.99 -9.99
2019/12/08 15:48 EST    0.95   1.65 -999 -999 -999  44.5 -99.9 1028.8 -9.9 -9.999 -99.9 -99.99 -9.99
2019/12/08 15:54 EST    0.93   1.64 -999 -999 -999  44.5 -99.9 1028.7 -9.9 -9.999 -99.9 -99.99 -9.99
2019/12/08 16:00 EST    0.92   1.64 -999 -999 -999  44.4 -99.9 1028.6 -9.9 -9.999 -99.9 -99.99 -9.99
2019/12/08 16:06 EST    0.91   1.62 -999 -999 -999  44.4 -99.9 1028.7 -9.9 -9.999 -99.9 -99.99 -9.99
2019/12/08 16:12 EST    0.90   1.61 -999 -999 -999  44.3 -99.9 1028.6 -9.9 -9.999 -99.9 -99.99 -9.99
2019/12/08 16:18 EST    0.89   1.60 -999 -999 -999  44.3 -99.9 1028.6 -9.9 -9.999 -99.9 -99.99 -9.99
2019/12/08 16:24 EST    0.87   1.59 -999 -999 -999  44.2 -99.9 1028.6 -9.9 -9.999 -99.9 -99.99 -9.99
2019/12/08 16:30 EST    0.86   1.59 -999 -999 -999  44.0 -99.9 1028.5 -9.9 -9.999 -99.9 -99.99 -9.99
2019/12/08 16:36 EST    0.84   1.57 -999 -999 -999  43.8 -99.9 1028.5 -9.9 -9.999 -99.9 -99.99 -9.99
2019/12/08 16:42 EST    0.83   1.54 -999 -999 -999  43.6 -99.9 1028.4 -9.9 -9.999 -99.9 -99.99 -9.99
2019/12/08 16:48 EST    0.81   1.53 -999 -999 -999  43.3 -99.9 1028.3 -9.9 -9.999 -99.9 -99.99 -9.99
2019/12/08 16:54 EST    0.80   1.51 -999 -999 -999  43.3 -99.9 1028.3 -9.9 -9.999 -99.9 -99.99 -9.99
2019/12/08 17:00 EST    0.78   1.49 -999 -999 -999  43.0 -99.9 1028.4 -9.9 -9.999 -99.9 -99.99 -9.99
2019/12/08 17:06 EST    0.76   1.47 -999 -999 -999  42.7 -99.9 1028.4 -9.9 -9.999 -99.9 -99.99 -9.99
2019/12/08 17:12 EST    0.75   1.45 -999 -999 -999  42.6 -99.9 1028.2 -9.9 -9.999 -99.9 -99.99 -9.99
2019/12/08 17:18 EST    0.73   1.44 -999 -999 -999  42.7 -99.9 1028.3 -9.9 -9.999 -99.9 -99.99 -9.99
2019/12/08 17:24 EST    0.71   1.42 -999 -999 -999  42.7 -99.9 1028.3 -9.9 -9.999 -99.9 -99.99 -9.99
2019/12/08 17:30 EST    0.69   1.40 -999 -999 -999  42.9 -99.9 1028.3 -9.9 -9.999 -99.9 -99.99 -9.99
2019/12/08 17:36 EST    0.68   1.39 -999 -999 -999  42.9 -99.9 1028.3 -9.9 -9.999 -99.9 -99.99 -9.99
2019/12/08 17:42 EST    0.66   1.37 -999 -999 -999  43.0 -99.9 1028.3 -9.9 -9.999 -99.9 -99.99 -9.99
2019/12/08 17:48 EST    0.64   1.35 -999 -999 -999  43.2 -99.9 1028.3 -9.9 -9.999 -99.9 -99.99 -9.99
2019/12/08 17:54 EST    0.62   1.34 -999 -999 -999  43.2 -99.9 1028.4 -9.9 -9.999 -99.9 -99.99 -9.99
2019/12/08 18:00 EST    0.60   1.33 -999 -999 -999  43.2 -99.9 1028.4 -9.9 -9.999 -99.9 -99.99 -9.99
2019/12/08 18:06 EST    0.58   1.31 -999 -999 -999  43.5 -99.9 1028.4 -9.9 -9.999 -99.9 -99.99 -9.99
2019/12/08 18:12 EST    0.56   1.29 -999 -999 -999  43.5 -99.9 1028.5 -9.9 -9.999 -99.9 -99.99 -9.99
2019/12/08 18:18 EST    0.54   1.27 -999 -999 -999  43.6 -99.9 1028.5 -9.9 -9.999 -99.9 -99.99 -9.99
2019/12/08 18:24 EST    0.52   1.25 -999 -999 -999  43.6 -99.9 1028.4 -9.9 -9.999 -99.9 -99.99 -9.99
2019/12/08 18:30 EST    0.50   1.23 -999 -999 -999  43.9 -99.9 1028.2 -9.9 -9.999 -99.9 -99.99 -9.99
2019/12/08 18:36 EST    0.48   1.22 -999 -999 -999  44.1 -99.9 1028.2 -9.9 -9.999 -99.9 -99.99 -9.99
2019/12/08 18:42 EST    0.46   1.20 -999 -999 -999  43.9 -99.9 1028.1 -9.9 -9.999 -99.9 -99.99 -9.99
2019/12/08 18:48 EST    0.44   1.19 -999 -999 -999  44.0 -99.9 1027.8 -9.9 -9.999 -99.9 -99.99 -9.99
2019/12/08 18:54 EST    0.42   1.17 -999 -999 -999  44.0 -99.9 1027.7 -9.9 -9.999 -99.9 -99.99 -9.99
2019/12/08 19:00 EST    0.40   1.15 -999 -999 -999  44.2 -99.9 1027.8 -9.9 -9.999 -99.9 -99.99 -9.99
2019/12/08 19:06 EST    0.38   1.14 -999 -999 -999  43.8 -99.9 1027.6 -9.9 -9.999 -99.9 -99.99 -9.99
2019/12/08 19:12 EST    0.36   1.12 -999 -999 -999  44.0 -99.9 1027.4 -9.9 -9.999 -99.9 -99.99 -9.99
2019/12/08 19:18 EST    0.35   1.10 -999 -999 -999  44.2 -99.9 1027.1 -9.9 -9.999 -99.9 -99.99 -9.99
2019/12/08 19:24 EST    0.33   1.09 -999 -999 -999  44.3 -99.9 1027.2 -9.9 -9.999 -99.9 -99.99 -9.99
2019/12/08 19:30 EST    0.31   1.08 -999 -999 -999  44.1 -99.9 1027.3 -9.9 -9.999 -99.9 -99.99 -9.99
2019/12/08 19:36 EST    0.30   1.07 -999 -999 -999  44.0 -99.9 1027.4 -9.9 -9.999 -99.9 -99.99 -9.99
2019/12/08 19:42 EST    0.28   1.05 -999 -999 -999  44.2 -99.9 1027.3 -9.9 -9.999 -99.9 -99.99 -9.99
2019/12/08 19:48 EST    0.27   1.03 -999 -999 -999  44.1 -99.9 1027.3 -9.9 -9.999 -99.9 -99.99 -9.99
2019/12/08 19:54 EST    0.26 -99.99 -999 -999 -999 -99.9 -99.9 -999.9 -9.9 -9.999 -99.9 -99.99 -9.99